<?xml version="1.0" encoding="UTF-8" standalone="no" ?>
<gpx xmlns="http://www.topografix.com/GPX/1/1" xmlns:xsi="http://www.w3.org/2001/XMLSchema-instance" xsi:schemaLocation="http://www.topografix.com/GPX/1/1 http://www.topografix.com/GPX/1/1/gpx.xsd" version="1.1" creator="VisuGPX - https://www.visugpx.com">
  <metadata>
    <name>LES TART</name>
    <desc><![CDATA[Départ de l\'église de Tart le haut. Descendre vers Tart le bas. Arrivé au bord de l\'Ouches prendre le chemin de champs en direction de Tart l\'Abbaye. Revenir au point de départ par le bois.J.C.]]></desc>
  </metadata>
  <trk>
    <name><![CDATA[LES TART]]></name>
    <trkseg>
      <trkpt lat="47.20538" lon="5.20625">
        <ele>239.02</ele>
        <time>2014-06-03T12:12:21Z</time>
      </trkpt>
      <trkpt lat="47.20539" lon="5.20625">
        <ele>238.06</ele>
        <time>2014-06-03T12:12:22Z</time>
      </trkpt>
      <trkpt lat="47.20539" lon="5.20625">
        <ele>239.02</ele>
        <time>2014-06-03T12:12:45Z</time>
      </trkpt>
      <trkpt lat="47.20538" lon="5.20625">
        <ele>239.02</ele>
        <time>2014-06-03T12:13:00Z</time>
      </trkpt>
      <trkpt lat="47.20538" lon="5.20625">
        <ele>238.54</ele>
        <time>2014-06-03T12:13:14Z</time>
      </trkpt>
      <trkpt lat="47.20538" lon="5.20625">
        <ele>239.02</ele>
        <time>2014-06-03T12:13:31Z</time>
      </trkpt>
      <trkpt lat="47.20538" lon="5.20624">
        <ele>239.02</ele>
        <time>2014-06-03T12:13:42Z</time>
      </trkpt>
      <trkpt lat="47.20537" lon="5.2063">
        <ele>239.02</ele>
        <time>2014-06-03T12:13:57Z</time>
      </trkpt>
      <trkpt lat="47.20539" lon="5.20635">
        <ele>239.02</ele>
        <time>2014-06-03T12:14:10Z</time>
      </trkpt>
      <trkpt lat="47.2054" lon="5.20645">
        <ele>239.02</ele>
        <time>2014-06-03T12:14:24Z</time>
      </trkpt>
      <trkpt lat="47.20549" lon="5.20666">
        <ele>239.02</ele>
        <time>2014-06-03T12:14:42Z</time>
      </trkpt>
      <trkpt lat="47.20558" lon="5.20678">
        <ele>239.02</ele>
        <time>2014-06-03T12:14:58Z</time>
      </trkpt>
      <trkpt lat="47.20569" lon="5.20692">
        <ele>239.02</ele>
        <time>2014-06-03T12:15:13Z</time>
      </trkpt>
      <trkpt lat="47.20574" lon="5.20701">
        <ele>239.02</ele>
        <time>2014-06-03T12:15:24Z</time>
      </trkpt>
      <trkpt lat="47.20585" lon="5.2072">
        <ele>239.02</ele>
        <time>2014-06-03T12:15:41Z</time>
      </trkpt>
      <trkpt lat="47.20594" lon="5.20742">
        <ele>239.02</ele>
        <time>2014-06-03T12:15:59Z</time>
      </trkpt>
      <trkpt lat="47.206" lon="5.20752">
        <ele>239.02</ele>
        <time>2014-06-03T12:16:07Z</time>
      </trkpt>
      <trkpt lat="47.20605" lon="5.20766">
        <ele>239.02</ele>
        <time>2014-06-03T12:16:17Z</time>
      </trkpt>
      <trkpt lat="47.20607" lon="5.20771">
        <ele>239.02</ele>
        <time>2014-06-03T12:16:21Z</time>
      </trkpt>
      <trkpt lat="47.20611" lon="5.20778">
        <ele>239.02</ele>
        <time>2014-06-03T12:16:27Z</time>
      </trkpt>
      <trkpt lat="47.2062" lon="5.208">
        <ele>239.02</ele>
        <time>2014-06-03T12:16:45Z</time>
      </trkpt>
      <trkpt lat="47.20627" lon="5.20821">
        <ele>240.47</ele>
        <time>2014-06-03T12:17:02Z</time>
      </trkpt>
      <trkpt lat="47.20627" lon="5.20823">
        <ele>239.51</ele>
        <time>2014-06-03T12:17:04Z</time>
      </trkpt>
      <trkpt lat="47.2062" lon="5.20847">
        <ele>239.51</ele>
        <time>2014-06-03T12:17:22Z</time>
      </trkpt>
      <trkpt lat="47.20612" lon="5.20872">
        <ele>239.51</ele>
        <time>2014-06-03T12:17:40Z</time>
      </trkpt>
      <trkpt lat="47.2061" lon="5.20883">
        <ele>239.51</ele>
        <time>2014-06-03T12:17:48Z</time>
      </trkpt>
      <trkpt lat="47.20601" lon="5.20912">
        <ele>239.51</ele>
        <time>2014-06-03T12:18:08Z</time>
      </trkpt>
      <trkpt lat="47.20593" lon="5.20941">
        <ele>239.02</ele>
        <time>2014-06-03T12:18:27Z</time>
      </trkpt>
      <trkpt lat="47.20586" lon="5.20963">
        <ele>239.02</ele>
        <time>2014-06-03T12:18:43Z</time>
      </trkpt>
      <trkpt lat="47.20578" lon="5.20992">
        <ele>239.51</ele>
        <time>2014-06-03T12:19:02Z</time>
      </trkpt>
      <trkpt lat="47.20571" lon="5.21018">
        <ele>238.06</ele>
        <time>2014-06-03T12:19:20Z</time>
      </trkpt>
      <trkpt lat="47.20564" lon="5.21044">
        <ele>237.58</ele>
        <time>2014-06-03T12:19:38Z</time>
      </trkpt>
      <trkpt lat="47.20558" lon="5.21072">
        <ele>237.1</ele>
        <time>2014-06-03T12:19:56Z</time>
      </trkpt>
      <trkpt lat="47.20553" lon="5.21094">
        <ele>236.62</ele>
        <time>2014-06-03T12:20:10Z</time>
      </trkpt>
      <trkpt lat="47.20547" lon="5.21118">
        <ele>237.1</ele>
        <time>2014-06-03T12:20:28Z</time>
      </trkpt>
      <trkpt lat="47.20543" lon="5.21138">
        <ele>236.62</ele>
        <time>2014-06-03T12:20:43Z</time>
      </trkpt>
      <trkpt lat="47.20538" lon="5.21156">
        <ele>236.62</ele>
        <time>2014-06-03T12:20:56Z</time>
      </trkpt>
      <trkpt lat="47.2053" lon="5.21184">
        <ele>236.14</ele>
        <time>2014-06-03T12:21:15Z</time>
      </trkpt>
      <trkpt lat="47.20524" lon="5.21208">
        <ele>236.14</ele>
        <time>2014-06-03T12:21:32Z</time>
      </trkpt>
      <trkpt lat="47.20518" lon="5.21233">
        <ele>235.66</ele>
        <time>2014-06-03T12:21:48Z</time>
      </trkpt>
      <trkpt lat="47.20512" lon="5.21255">
        <ele>235.18</ele>
        <time>2014-06-03T12:22:03Z</time>
      </trkpt>
      <trkpt lat="47.20505" lon="5.2128">
        <ele>235.18</ele>
        <time>2014-06-03T12:22:20Z</time>
      </trkpt>
      <trkpt lat="47.20498" lon="5.21306">
        <ele>234.22</ele>
        <time>2014-06-03T12:22:38Z</time>
      </trkpt>
      <trkpt lat="47.2049" lon="5.21335">
        <ele>233.26</ele>
        <time>2014-06-03T12:22:58Z</time>
      </trkpt>
      <trkpt lat="47.20484" lon="5.21359">
        <ele>232.78</ele>
        <time>2014-06-03T12:23:14Z</time>
      </trkpt>
      <trkpt lat="47.20476" lon="5.21388">
        <ele>232.3</ele>
        <time>2014-06-03T12:23:33Z</time>
      </trkpt>
      <trkpt lat="47.2047" lon="5.21411">
        <ele>231.81</ele>
        <time>2014-06-03T12:23:51Z</time>
      </trkpt>
      <trkpt lat="47.20465" lon="5.21435">
        <ele>231.33</ele>
        <time>2014-06-03T12:24:07Z</time>
      </trkpt>
      <trkpt lat="47.2046" lon="5.21456">
        <ele>230.85</ele>
        <time>2014-06-03T12:24:23Z</time>
      </trkpt>
      <trkpt lat="47.20462" lon="5.2146">
        <ele>230.85</ele>
        <time>2014-06-03T12:24:26Z</time>
      </trkpt>
      <trkpt lat="47.20468" lon="5.21481">
        <ele>229.89</ele>
        <time>2014-06-03T12:24:42Z</time>
      </trkpt>
      <trkpt lat="47.2047" lon="5.21489">
        <ele>229.41</ele>
        <time>2014-06-03T12:24:48Z</time>
      </trkpt>
      <trkpt lat="47.20473" lon="5.21501">
        <ele>228.93</ele>
        <time>2014-06-03T12:24:58Z</time>
      </trkpt>
      <trkpt lat="47.20479" lon="5.21524">
        <ele>227.49</ele>
        <time>2014-06-03T12:25:14Z</time>
      </trkpt>
      <trkpt lat="47.20484" lon="5.21548">
        <ele>225.57</ele>
        <time>2014-06-03T12:25:30Z</time>
      </trkpt>
      <trkpt lat="47.20491" lon="5.21571">
        <ele>223.64</ele>
        <time>2014-06-03T12:25:45Z</time>
      </trkpt>
      <trkpt lat="47.20497" lon="5.21596">
        <ele>221.72</ele>
        <time>2014-06-03T12:26:02Z</time>
      </trkpt>
      <trkpt lat="47.20503" lon="5.21618">
        <ele>219.8</ele>
        <time>2014-06-03T12:26:17Z</time>
      </trkpt>
      <trkpt lat="47.20508" lon="5.21639">
        <ele>217.88</ele>
        <time>2014-06-03T12:26:32Z</time>
      </trkpt>
      <trkpt lat="47.20515" lon="5.21661">
        <ele>216.43</ele>
        <time>2014-06-03T12:26:47Z</time>
      </trkpt>
      <trkpt lat="47.20519" lon="5.21676">
        <ele>215.47</ele>
        <time>2014-06-03T12:26:57Z</time>
      </trkpt>
      <trkpt lat="47.20522" lon="5.21686">
        <ele>214.99</ele>
        <time>2014-06-03T12:27:03Z</time>
      </trkpt>
      <trkpt lat="47.20529" lon="5.21709">
        <ele>213.55</ele>
        <time>2014-06-03T12:27:19Z</time>
      </trkpt>
      <trkpt lat="47.20534" lon="5.21733">
        <ele>212.11</ele>
        <time>2014-06-03T12:27:35Z</time>
      </trkpt>
      <trkpt lat="47.20534" lon="5.21739">
        <ele>212.11</ele>
        <time>2014-06-03T12:27:39Z</time>
      </trkpt>
      <trkpt lat="47.20536" lon="5.21743">
        <ele>211.63</ele>
        <time>2014-06-03T12:27:43Z</time>
      </trkpt>
      <trkpt lat="47.20537" lon="5.21751">
        <ele>211.63</ele>
        <time>2014-06-03T12:27:48Z</time>
      </trkpt>
      <trkpt lat="47.20538" lon="5.21753">
        <ele>211.15</ele>
        <time>2014-06-03T12:27:50Z</time>
      </trkpt>
      <trkpt lat="47.20543" lon="5.21772">
        <ele>210.19</ele>
        <time>2014-06-03T12:28:04Z</time>
      </trkpt>
      <trkpt lat="47.20549" lon="5.21792">
        <ele>210.19</ele>
        <time>2014-06-03T12:28:18Z</time>
      </trkpt>
      <trkpt lat="47.20551" lon="5.21803">
        <ele>209.7</ele>
        <time>2014-06-03T12:28:25Z</time>
      </trkpt>
      <trkpt lat="47.20556" lon="5.21825">
        <ele>209.7</ele>
        <time>2014-06-03T12:28:40Z</time>
      </trkpt>
      <trkpt lat="47.20562" lon="5.21837">
        <ele>210.19</ele>
        <time>2014-06-03T12:28:54Z</time>
      </trkpt>
      <trkpt lat="47.2057" lon="5.21854">
        <ele>209.7</ele>
        <time>2014-06-03T12:29:08Z</time>
      </trkpt>
      <trkpt lat="47.20571" lon="5.21856">
        <ele>209.22</ele>
        <time>2014-06-03T12:29:10Z</time>
      </trkpt>
      <trkpt lat="47.20578" lon="5.21881">
        <ele>208.74</ele>
        <time>2014-06-03T12:29:27Z</time>
      </trkpt>
      <trkpt lat="47.20579" lon="5.21883">
        <ele>208.74</ele>
        <time>2014-06-03T12:29:28Z</time>
      </trkpt>
      <trkpt lat="47.20579" lon="5.2189">
        <ele>208.74</ele>
        <time>2014-06-03T12:29:33Z</time>
      </trkpt>
      <trkpt lat="47.20585" lon="5.21914">
        <ele>207.78</ele>
        <time>2014-06-03T12:29:50Z</time>
      </trkpt>
      <trkpt lat="47.20591" lon="5.21934">
        <ele>206.82</ele>
        <time>2014-06-03T12:30:04Z</time>
      </trkpt>
      <trkpt lat="47.20598" lon="5.21961">
        <ele>206.34</ele>
        <time>2014-06-03T12:30:21Z</time>
      </trkpt>
      <trkpt lat="47.20607" lon="5.21989">
        <ele>204.9</ele>
        <time>2014-06-03T12:30:38Z</time>
      </trkpt>
      <trkpt lat="47.20612" lon="5.22006">
        <ele>204.9</ele>
        <time>2014-06-03T12:30:51Z</time>
      </trkpt>
      <trkpt lat="47.20612" lon="5.22009">
        <ele>205.38</ele>
        <time>2014-06-03T12:30:53Z</time>
      </trkpt>
      <trkpt lat="47.20618" lon="5.22032">
        <ele>205.86</ele>
        <time>2014-06-03T12:31:08Z</time>
      </trkpt>
      <trkpt lat="47.20623" lon="5.22054">
        <ele>203.94</ele>
        <time>2014-06-03T12:31:22Z</time>
      </trkpt>
      <trkpt lat="47.20627" lon="5.22074">
        <ele>203.94</ele>
        <time>2014-06-03T12:31:37Z</time>
      </trkpt>
      <trkpt lat="47.20631" lon="5.22097">
        <ele>203.46</ele>
        <time>2014-06-03T12:31:55Z</time>
      </trkpt>
      <trkpt lat="47.20636" lon="5.22114">
        <ele>203.46</ele>
        <time>2014-06-03T12:32:09Z</time>
      </trkpt>
      <trkpt lat="47.20637" lon="5.22118">
        <ele>203.46</ele>
        <time>2014-06-03T12:32:12Z</time>
      </trkpt>
      <trkpt lat="47.20646" lon="5.2215">
        <ele>203.46</ele>
        <time>2014-06-03T12:32:30Z</time>
      </trkpt>
      <trkpt lat="47.20644" lon="5.22153">
        <ele>202.98</ele>
        <time>2014-06-03T12:32:34Z</time>
      </trkpt>
      <trkpt lat="47.20635" lon="5.2216">
        <ele>202.98</ele>
        <time>2014-06-03T12:32:47Z</time>
      </trkpt>
      <trkpt lat="47.2063" lon="5.22162">
        <ele>203.46</ele>
        <time>2014-06-03T12:32:53Z</time>
      </trkpt>
      <trkpt lat="47.20615" lon="5.22173">
        <ele>203.94</ele>
        <time>2014-06-03T12:33:10Z</time>
      </trkpt>
      <trkpt lat="47.20605" lon="5.22184">
        <ele>203.46</ele>
        <time>2014-06-03T12:33:21Z</time>
      </trkpt>
      <trkpt lat="47.20591" lon="5.22207">
        <ele>203.94</ele>
        <time>2014-06-03T12:33:41Z</time>
      </trkpt>
      <trkpt lat="47.20583" lon="5.22226">
        <ele>202.98</ele>
        <time>2014-06-03T12:33:57Z</time>
      </trkpt>
      <trkpt lat="47.2058" lon="5.22254">
        <ele>202.01</ele>
        <time>2014-06-03T12:34:15Z</time>
      </trkpt>
      <trkpt lat="47.20579" lon="5.2226">
        <ele>202.01</ele>
        <time>2014-06-03T12:34:19Z</time>
      </trkpt>
      <trkpt lat="47.20579" lon="5.22267">
        <ele>202.01</ele>
        <time>2014-06-03T12:34:24Z</time>
      </trkpt>
      <trkpt lat="47.20585" lon="5.22283">
        <ele>202.01</ele>
        <time>2014-06-03T12:34:35Z</time>
      </trkpt>
      <trkpt lat="47.20588" lon="5.223">
        <ele>201.53</ele>
        <time>2014-06-03T12:34:52Z</time>
      </trkpt>
      <trkpt lat="47.20586" lon="5.22308">
        <ele>201.53</ele>
        <time>2014-06-03T12:35:02Z</time>
      </trkpt>
      <trkpt lat="47.20584" lon="5.22317">
        <ele>201.53</ele>
        <time>2014-06-03T12:35:09Z</time>
      </trkpt>
      <trkpt lat="47.20574" lon="5.22343">
        <ele>202.01</ele>
        <time>2014-06-03T12:35:27Z</time>
      </trkpt>
      <trkpt lat="47.20571" lon="5.22348">
        <ele>202.01</ele>
        <time>2014-06-03T12:35:31Z</time>
      </trkpt>
      <trkpt lat="47.20553" lon="5.22367">
        <ele>202.01</ele>
        <time>2014-06-03T12:35:51Z</time>
      </trkpt>
      <trkpt lat="47.2054" lon="5.22379">
        <ele>202.01</ele>
        <time>2014-06-03T12:36:06Z</time>
      </trkpt>
      <trkpt lat="47.20539" lon="5.22379">
        <ele>201.53</ele>
        <time>2014-06-03T12:36:07Z</time>
      </trkpt>
      <trkpt lat="47.20528" lon="5.22387">
        <ele>201.53</ele>
        <time>2014-06-03T12:36:20Z</time>
      </trkpt>
      <trkpt lat="47.2052" lon="5.22394">
        <ele>202.01</ele>
        <time>2014-06-03T12:36:34Z</time>
      </trkpt>
      <trkpt lat="47.20516" lon="5.22395">
        <ele>202.01</ele>
        <time>2014-06-03T12:36:38Z</time>
      </trkpt>
      <trkpt lat="47.205" lon="5.22405">
        <ele>201.53</ele>
        <time>2014-06-03T12:36:55Z</time>
      </trkpt>
      <trkpt lat="47.205" lon="5.22407">
        <ele>201.53</ele>
        <time>2014-06-03T12:36:56Z</time>
      </trkpt>
      <trkpt lat="47.20499" lon="5.22412">
        <ele>201.53</ele>
        <time>2014-06-03T12:37:03Z</time>
      </trkpt>
      <trkpt lat="47.20498" lon="5.22414">
        <ele>201.53</ele>
        <time>2014-06-03T12:37:05Z</time>
      </trkpt>
      <trkpt lat="47.20495" lon="5.22423">
        <ele>202.01</ele>
        <time>2014-06-03T12:37:10Z</time>
      </trkpt>
      <trkpt lat="47.20498" lon="5.22447">
        <ele>201.05</ele>
        <time>2014-06-03T12:37:28Z</time>
      </trkpt>
      <trkpt lat="47.20502" lon="5.22475">
        <ele>201.05</ele>
        <time>2014-06-03T12:37:47Z</time>
      </trkpt>
      <trkpt lat="47.20505" lon="5.22497">
        <ele>201.05</ele>
        <time>2014-06-03T12:38:04Z</time>
      </trkpt>
      <trkpt lat="47.20509" lon="5.22517">
        <ele>201.05</ele>
        <time>2014-06-03T12:38:19Z</time>
      </trkpt>
      <trkpt lat="47.20513" lon="5.22542">
        <ele>201.05</ele>
        <time>2014-06-03T12:38:36Z</time>
      </trkpt>
      <trkpt lat="47.20514" lon="5.22545">
        <ele>201.53</ele>
        <time>2014-06-03T12:38:39Z</time>
      </trkpt>
      <trkpt lat="47.20514" lon="5.22551">
        <ele>201.53</ele>
        <time>2014-06-03T12:38:43Z</time>
      </trkpt>
      <trkpt lat="47.20517" lon="5.22562">
        <ele>201.53</ele>
        <time>2014-06-03T12:38:51Z</time>
      </trkpt>
      <trkpt lat="47.20517" lon="5.22585">
        <ele>202.01</ele>
        <time>2014-06-03T12:39:06Z</time>
      </trkpt>
      <trkpt lat="47.20522" lon="5.22603">
        <ele>202.01</ele>
        <time>2014-06-03T12:39:22Z</time>
      </trkpt>
      <trkpt lat="47.20522" lon="5.22603">
        <ele>202.01</ele>
        <time>2014-06-03T12:39:35Z</time>
      </trkpt>
      <trkpt lat="47.20524" lon="5.22605">
        <ele>202.01</ele>
        <time>2014-06-03T12:39:51Z</time>
      </trkpt>
      <trkpt lat="47.20524" lon="5.22607">
        <ele>202.01</ele>
        <time>2014-06-03T12:40:05Z</time>
      </trkpt>
      <trkpt lat="47.2052" lon="5.22612">
        <ele>202.01</ele>
        <time>2014-06-03T12:40:11Z</time>
      </trkpt>
      <trkpt lat="47.20517" lon="5.22617">
        <ele>202.49</ele>
        <time>2014-06-03T12:40:16Z</time>
      </trkpt>
      <trkpt lat="47.205" lon="5.22638">
        <ele>202.01</ele>
        <time>2014-06-03T12:40:38Z</time>
      </trkpt>
      <trkpt lat="47.20485" lon="5.22655">
        <ele>202.01</ele>
        <time>2014-06-03T12:40:56Z</time>
      </trkpt>
      <trkpt lat="47.20471" lon="5.22672">
        <ele>202.01</ele>
        <time>2014-06-03T12:41:14Z</time>
      </trkpt>
      <trkpt lat="47.20458" lon="5.22687">
        <ele>201.53</ele>
        <time>2014-06-03T12:41:30Z</time>
      </trkpt>
      <trkpt lat="47.20443" lon="5.22705">
        <ele>201.53</ele>
        <time>2014-06-03T12:41:48Z</time>
      </trkpt>
      <trkpt lat="47.20442" lon="5.22707">
        <ele>201.53</ele>
        <time>2014-06-03T12:41:50Z</time>
      </trkpt>
      <trkpt lat="47.20439" lon="5.22711">
        <ele>201.05</ele>
        <time>2014-06-03T12:41:55Z</time>
      </trkpt>
      <trkpt lat="47.20435" lon="5.22716">
        <ele>201.53</ele>
        <time>2014-06-03T12:42:00Z</time>
      </trkpt>
      <trkpt lat="47.20418" lon="5.22738">
        <ele>201.53</ele>
        <time>2014-06-03T12:42:22Z</time>
      </trkpt>
      <trkpt lat="47.20402" lon="5.22755">
        <ele>201.53</ele>
        <time>2014-06-03T12:42:42Z</time>
      </trkpt>
      <trkpt lat="47.20387" lon="5.22773">
        <ele>201.53</ele>
        <time>2014-06-03T12:43:00Z</time>
      </trkpt>
      <trkpt lat="47.20371" lon="5.22793">
        <ele>201.53</ele>
        <time>2014-06-03T12:43:19Z</time>
      </trkpt>
      <trkpt lat="47.20357" lon="5.22812">
        <ele>201.53</ele>
        <time>2014-06-03T12:43:37Z</time>
      </trkpt>
      <trkpt lat="47.20343" lon="5.22828">
        <ele>201.05</ele>
        <time>2014-06-03T12:43:54Z</time>
      </trkpt>
      <trkpt lat="47.20327" lon="5.22847">
        <ele>201.53</ele>
        <time>2014-06-03T12:44:13Z</time>
      </trkpt>
      <trkpt lat="47.20324" lon="5.22849">
        <ele>201.53</ele>
        <time>2014-06-03T12:44:16Z</time>
      </trkpt>
      <trkpt lat="47.20322" lon="5.2285">
        <ele>201.05</ele>
        <time>2014-06-03T12:44:20Z</time>
      </trkpt>
      <trkpt lat="47.20317" lon="5.22859">
        <ele>201.53</ele>
        <time>2014-06-03T12:44:27Z</time>
      </trkpt>
      <trkpt lat="47.20297" lon="5.22883">
        <ele>201.05</ele>
        <time>2014-06-03T12:44:49Z</time>
      </trkpt>
      <trkpt lat="47.20281" lon="5.22903">
        <ele>201.05</ele>
        <time>2014-06-03T12:45:08Z</time>
      </trkpt>
      <trkpt lat="47.20268" lon="5.22919">
        <ele>201.05</ele>
        <time>2014-06-03T12:45:23Z</time>
      </trkpt>
      <trkpt lat="47.20253" lon="5.22937">
        <ele>200.57</ele>
        <time>2014-06-03T12:45:40Z</time>
      </trkpt>
      <trkpt lat="47.20237" lon="5.22957">
        <ele>200.09</ele>
        <time>2014-06-03T12:45:59Z</time>
      </trkpt>
      <trkpt lat="47.20229" lon="5.22968">
        <ele>200.57</ele>
        <time>2014-06-03T12:46:09Z</time>
      </trkpt>
      <trkpt lat="47.20213" lon="5.22988">
        <ele>200.57</ele>
        <time>2014-06-03T12:46:28Z</time>
      </trkpt>
      <trkpt lat="47.202" lon="5.23003">
        <ele>200.57</ele>
        <time>2014-06-03T12:46:43Z</time>
      </trkpt>
      <trkpt lat="47.20193" lon="5.2301">
        <ele>200.57</ele>
        <time>2014-06-03T12:46:53Z</time>
      </trkpt>
      <trkpt lat="47.20191" lon="5.23015">
        <ele>201.05</ele>
        <time>2014-06-03T12:46:57Z</time>
      </trkpt>
      <trkpt lat="47.20172" lon="5.23036">
        <ele>200.57</ele>
        <time>2014-06-03T12:47:17Z</time>
      </trkpt>
      <trkpt lat="47.20153" lon="5.23059">
        <ele>200.57</ele>
        <time>2014-06-03T12:47:39Z</time>
      </trkpt>
      <trkpt lat="47.20139" lon="5.23077">
        <ele>200.57</ele>
        <time>2014-06-03T12:47:55Z</time>
      </trkpt>
      <trkpt lat="47.20122" lon="5.23092">
        <ele>200.09</ele>
        <time>2014-06-03T12:48:13Z</time>
      </trkpt>
      <trkpt lat="47.20104" lon="5.23104">
        <ele>200.09</ele>
        <time>2014-06-03T12:48:30Z</time>
      </trkpt>
      <trkpt lat="47.20088" lon="5.23114">
        <ele>200.09</ele>
        <time>2014-06-03T12:48:46Z</time>
      </trkpt>
      <trkpt lat="47.20068" lon="5.23129">
        <ele>200.09</ele>
        <time>2014-06-03T12:49:06Z</time>
      </trkpt>
      <trkpt lat="47.20056" lon="5.23137">
        <ele>200.09</ele>
        <time>2014-06-03T12:49:18Z</time>
      </trkpt>
      <trkpt lat="47.20046" lon="5.23144">
        <ele>200.09</ele>
        <time>2014-06-03T12:49:28Z</time>
      </trkpt>
      <trkpt lat="47.2003" lon="5.23155">
        <ele>200.09</ele>
        <time>2014-06-03T12:49:43Z</time>
      </trkpt>
      <trkpt lat="47.20014" lon="5.23166">
        <ele>200.09</ele>
        <time>2014-06-03T12:49:59Z</time>
      </trkpt>
      <trkpt lat="47.19996" lon="5.23179">
        <ele>200.09</ele>
        <time>2014-06-03T12:50:17Z</time>
      </trkpt>
      <trkpt lat="47.19979" lon="5.23192">
        <ele>200.09</ele>
        <time>2014-06-03T12:50:34Z</time>
      </trkpt>
      <trkpt lat="47.1996" lon="5.23205">
        <ele>199.61</ele>
        <time>2014-06-03T12:50:54Z</time>
      </trkpt>
      <trkpt lat="47.19944" lon="5.23218">
        <ele>199.61</ele>
        <time>2014-06-03T12:51:11Z</time>
      </trkpt>
      <trkpt lat="47.1994" lon="5.2322">
        <ele>199.61</ele>
        <time>2014-06-03T12:51:16Z</time>
      </trkpt>
      <trkpt lat="47.19939" lon="5.23221">
        <ele>199.61</ele>
        <time>2014-06-03T12:51:18Z</time>
      </trkpt>
      <trkpt lat="47.19925" lon="5.2323">
        <ele>199.61</ele>
        <time>2014-06-03T12:51:33Z</time>
      </trkpt>
      <trkpt lat="47.1992" lon="5.23235">
        <ele>199.61</ele>
        <time>2014-06-03T12:51:39Z</time>
      </trkpt>
      <trkpt lat="47.19912" lon="5.2324">
        <ele>199.61</ele>
        <time>2014-06-03T12:51:48Z</time>
      </trkpt>
      <trkpt lat="47.19895" lon="5.23251">
        <ele>199.61</ele>
        <time>2014-06-03T12:52:05Z</time>
      </trkpt>
      <trkpt lat="47.19881" lon="5.23262">
        <ele>199.13</ele>
        <time>2014-06-03T12:52:21Z</time>
      </trkpt>
      <trkpt lat="47.19866" lon="5.23274">
        <ele>199.61</ele>
        <time>2014-06-03T12:52:36Z</time>
      </trkpt>
      <trkpt lat="47.1985" lon="5.23285">
        <ele>199.13</ele>
        <time>2014-06-03T12:52:52Z</time>
      </trkpt>
      <trkpt lat="47.19832" lon="5.23297">
        <ele>199.13</ele>
        <time>2014-06-03T12:53:10Z</time>
      </trkpt>
      <trkpt lat="47.19813" lon="5.2331">
        <ele>199.13</ele>
        <time>2014-06-03T12:53:30Z</time>
      </trkpt>
      <trkpt lat="47.19799" lon="5.2332">
        <ele>199.13</ele>
        <time>2014-06-03T12:53:45Z</time>
      </trkpt>
      <trkpt lat="47.19781" lon="5.23333">
        <ele>199.13</ele>
        <time>2014-06-03T12:54:04Z</time>
      </trkpt>
      <trkpt lat="47.19763" lon="5.23346">
        <ele>198.65</ele>
        <time>2014-06-03T12:54:22Z</time>
      </trkpt>
      <trkpt lat="47.19752" lon="5.23355">
        <ele>198.65</ele>
        <time>2014-06-03T12:54:34Z</time>
      </trkpt>
      <trkpt lat="47.19731" lon="5.23368">
        <ele>198.65</ele>
        <time>2014-06-03T12:54:54Z</time>
      </trkpt>
      <trkpt lat="47.19714" lon="5.23382">
        <ele>198.65</ele>
        <time>2014-06-03T12:55:12Z</time>
      </trkpt>
      <trkpt lat="47.19698" lon="5.23393">
        <ele>198.65</ele>
        <time>2014-06-03T12:55:28Z</time>
      </trkpt>
      <trkpt lat="47.19679" lon="5.23405">
        <ele>198.17</ele>
        <time>2014-06-03T12:55:46Z</time>
      </trkpt>
      <trkpt lat="47.1966" lon="5.23419">
        <ele>198.17</ele>
        <time>2014-06-03T12:56:05Z</time>
      </trkpt>
      <trkpt lat="47.19659" lon="5.2342">
        <ele>198.17</ele>
        <time>2014-06-03T12:56:06Z</time>
      </trkpt>
      <trkpt lat="47.19657" lon="5.23421">
        <ele>197.69</ele>
        <time>2014-06-03T12:56:09Z</time>
      </trkpt>
      <trkpt lat="47.19637" lon="5.23438">
        <ele>198.17</ele>
        <time>2014-06-03T12:56:29Z</time>
      </trkpt>
      <trkpt lat="47.19618" lon="5.2346">
        <ele>198.17</ele>
        <time>2014-06-03T12:56:50Z</time>
      </trkpt>
      <trkpt lat="47.196" lon="5.23479">
        <ele>197.69</ele>
        <time>2014-06-03T12:57:10Z</time>
      </trkpt>
      <trkpt lat="47.19582" lon="5.23497">
        <ele>197.69</ele>
        <time>2014-06-03T12:57:29Z</time>
      </trkpt>
      <trkpt lat="47.19567" lon="5.23513">
        <ele>198.17</ele>
        <time>2014-06-03T12:57:46Z</time>
      </trkpt>
      <trkpt lat="47.1955" lon="5.23531">
        <ele>198.17</ele>
        <time>2014-06-03T12:58:05Z</time>
      </trkpt>
      <trkpt lat="47.19534" lon="5.23547">
        <ele>197.69</ele>
        <time>2014-06-03T12:58:22Z</time>
      </trkpt>
      <trkpt lat="47.19518" lon="5.23564">
        <ele>197.69</ele>
        <time>2014-06-03T12:58:39Z</time>
      </trkpt>
      <trkpt lat="47.19502" lon="5.23582">
        <ele>197.69</ele>
        <time>2014-06-03T12:58:57Z</time>
      </trkpt>
      <trkpt lat="47.19485" lon="5.23599">
        <ele>197.21</ele>
        <time>2014-06-03T12:59:15Z</time>
      </trkpt>
      <trkpt lat="47.19472" lon="5.23612">
        <ele>197.21</ele>
        <time>2014-06-03T12:59:30Z</time>
      </trkpt>
      <trkpt lat="47.19458" lon="5.23629">
        <ele>196.73</ele>
        <time>2014-06-03T12:59:47Z</time>
      </trkpt>
      <trkpt lat="47.19441" lon="5.23646">
        <ele>197.21</ele>
        <time>2014-06-03T13:00:05Z</time>
      </trkpt>
      <trkpt lat="47.19436" lon="5.2365">
        <ele>197.21</ele>
        <time>2014-06-03T13:00:12Z</time>
      </trkpt>
      <trkpt lat="47.19418" lon="5.23633">
        <ele>197.21</ele>
        <time>2014-06-03T13:00:33Z</time>
      </trkpt>
      <trkpt lat="47.19406" lon="5.23621">
        <ele>196.73</ele>
        <time>2014-06-03T13:00:48Z</time>
      </trkpt>
      <trkpt lat="47.19403" lon="5.23619">
        <ele>197.21</ele>
        <time>2014-06-03T13:00:52Z</time>
      </trkpt>
      <trkpt lat="47.19384" lon="5.236">
        <ele>197.21</ele>
        <time>2014-06-03T13:01:13Z</time>
      </trkpt>
      <trkpt lat="47.19374" lon="5.23588">
        <ele>197.21</ele>
        <time>2014-06-03T13:01:28Z</time>
      </trkpt>
      <trkpt lat="47.19356" lon="5.23571">
        <ele>197.21</ele>
        <time>2014-06-03T13:01:48Z</time>
      </trkpt>
      <trkpt lat="47.19344" lon="5.23562">
        <ele>197.21</ele>
        <time>2014-06-03T13:02:04Z</time>
      </trkpt>
      <trkpt lat="47.19337" lon="5.23568">
        <ele>197.21</ele>
        <time>2014-06-03T13:02:18Z</time>
      </trkpt>
      <trkpt lat="47.19329" lon="5.23581">
        <ele>197.21</ele>
        <time>2014-06-03T13:02:35Z</time>
      </trkpt>
      <trkpt lat="47.1932" lon="5.23596">
        <ele>197.21</ele>
        <time>2014-06-03T13:02:49Z</time>
      </trkpt>
      <trkpt lat="47.1931" lon="5.23614">
        <ele>197.21</ele>
        <time>2014-06-03T13:03:04Z</time>
      </trkpt>
      <trkpt lat="47.19305" lon="5.23623">
        <ele>197.21</ele>
        <time>2014-06-03T13:03:17Z</time>
      </trkpt>
      <trkpt lat="47.19293" lon="5.23644">
        <ele>197.21</ele>
        <time>2014-06-03T13:03:35Z</time>
      </trkpt>
      <trkpt lat="47.19284" lon="5.23661">
        <ele>197.21</ele>
        <time>2014-06-03T13:03:49Z</time>
      </trkpt>
      <trkpt lat="47.19273" lon="5.23681">
        <ele>197.21</ele>
        <time>2014-06-03T13:04:06Z</time>
      </trkpt>
      <trkpt lat="47.19261" lon="5.23702">
        <ele>197.21</ele>
        <time>2014-06-03T13:04:25Z</time>
      </trkpt>
      <trkpt lat="47.1925" lon="5.23719">
        <ele>196.73</ele>
        <time>2014-06-03T13:04:42Z</time>
      </trkpt>
      <trkpt lat="47.19235" lon="5.2374">
        <ele>197.21</ele>
        <time>2014-06-03T13:05:00Z</time>
      </trkpt>
      <trkpt lat="47.19221" lon="5.23759">
        <ele>197.21</ele>
        <time>2014-06-03T13:05:19Z</time>
      </trkpt>
      <trkpt lat="47.19208" lon="5.23778">
        <ele>197.21</ele>
        <time>2014-06-03T13:05:37Z</time>
      </trkpt>
      <trkpt lat="47.19195" lon="5.23795">
        <ele>197.69</ele>
        <time>2014-06-03T13:05:54Z</time>
      </trkpt>
      <trkpt lat="47.19181" lon="5.23814">
        <ele>197.21</ele>
        <time>2014-06-03T13:06:12Z</time>
      </trkpt>
      <trkpt lat="47.19177" lon="5.2382">
        <ele>197.21</ele>
        <time>2014-06-03T13:06:17Z</time>
      </trkpt>
      <trkpt lat="47.19167" lon="5.23834">
        <ele>197.21</ele>
        <time>2014-06-03T13:06:30Z</time>
      </trkpt>
      <trkpt lat="47.19154" lon="5.23852">
        <ele>197.21</ele>
        <time>2014-06-03T13:06:47Z</time>
      </trkpt>
      <trkpt lat="47.19141" lon="5.23869">
        <ele>197.21</ele>
        <time>2014-06-03T13:07:03Z</time>
      </trkpt>
      <trkpt lat="47.19137" lon="5.23875">
        <ele>197.21</ele>
        <time>2014-06-03T13:07:08Z</time>
      </trkpt>
      <trkpt lat="47.19123" lon="5.23896">
        <ele>197.21</ele>
        <time>2014-06-03T13:07:28Z</time>
      </trkpt>
      <trkpt lat="47.19109" lon="5.23912">
        <ele>197.21</ele>
        <time>2014-06-03T13:07:44Z</time>
      </trkpt>
      <trkpt lat="47.19098" lon="5.23929">
        <ele>197.21</ele>
        <time>2014-06-03T13:08:00Z</time>
      </trkpt>
      <trkpt lat="47.19087" lon="5.23947">
        <ele>197.21</ele>
        <time>2014-06-03T13:08:16Z</time>
      </trkpt>
      <trkpt lat="47.1908" lon="5.23959">
        <ele>197.69</ele>
        <time>2014-06-03T13:08:26Z</time>
      </trkpt>
      <trkpt lat="47.19069" lon="5.23974">
        <ele>197.69</ele>
        <time>2014-06-03T13:08:42Z</time>
      </trkpt>
      <trkpt lat="47.19059" lon="5.23988">
        <ele>198.17</ele>
        <time>2014-06-03T13:08:58Z</time>
      </trkpt>
      <trkpt lat="47.19047" lon="5.24006">
        <ele>198.65</ele>
        <time>2014-06-03T13:09:16Z</time>
      </trkpt>
      <trkpt lat="47.19032" lon="5.24023">
        <ele>198.17</ele>
        <time>2014-06-03T13:09:32Z</time>
      </trkpt>
      <trkpt lat="47.19019" lon="5.24038">
        <ele>198.17</ele>
        <time>2014-06-03T13:09:47Z</time>
      </trkpt>
      <trkpt lat="47.19007" lon="5.24052">
        <ele>198.17</ele>
        <time>2014-06-03T13:10:03Z</time>
      </trkpt>
      <trkpt lat="47.18998" lon="5.24064">
        <ele>198.17</ele>
        <time>2014-06-03T13:10:16Z</time>
      </trkpt>
      <trkpt lat="47.18988" lon="5.24079">
        <ele>198.17</ele>
        <time>2014-06-03T13:10:30Z</time>
      </trkpt>
      <trkpt lat="47.18974" lon="5.24099">
        <ele>197.69</ele>
        <time>2014-06-03T13:10:49Z</time>
      </trkpt>
      <trkpt lat="47.1896" lon="5.24117">
        <ele>197.69</ele>
        <time>2014-06-03T13:11:05Z</time>
      </trkpt>
      <trkpt lat="47.18948" lon="5.24133">
        <ele>197.69</ele>
        <time>2014-06-03T13:11:21Z</time>
      </trkpt>
      <trkpt lat="47.18947" lon="5.24134">
        <ele>197.69</ele>
        <time>2014-06-03T13:11:22Z</time>
      </trkpt>
      <trkpt lat="47.18942" lon="5.24141">
        <ele>197.69</ele>
        <time>2014-06-03T13:11:28Z</time>
      </trkpt>
      <trkpt lat="47.18931" lon="5.24158">
        <ele>197.69</ele>
        <time>2014-06-03T13:11:44Z</time>
      </trkpt>
      <trkpt lat="47.18917" lon="5.24177">
        <ele>197.69</ele>
        <time>2014-06-03T13:12:02Z</time>
      </trkpt>
      <trkpt lat="47.18903" lon="5.24195">
        <ele>197.69</ele>
        <time>2014-06-03T13:12:20Z</time>
      </trkpt>
      <trkpt lat="47.18889" lon="5.24215">
        <ele>197.21</ele>
        <time>2014-06-03T13:12:38Z</time>
      </trkpt>
      <trkpt lat="47.18874" lon="5.24232">
        <ele>197.21</ele>
        <time>2014-06-03T13:12:57Z</time>
      </trkpt>
      <trkpt lat="47.1886" lon="5.24245">
        <ele>197.21</ele>
        <time>2014-06-03T13:13:13Z</time>
      </trkpt>
      <trkpt lat="47.18845" lon="5.24259">
        <ele>197.21</ele>
        <time>2014-06-03T13:13:30Z</time>
      </trkpt>
      <trkpt lat="47.18829" lon="5.24273">
        <ele>197.21</ele>
        <time>2014-06-03T13:13:48Z</time>
      </trkpt>
      <trkpt lat="47.18816" lon="5.24286">
        <ele>197.21</ele>
        <time>2014-06-03T13:14:05Z</time>
      </trkpt>
      <trkpt lat="47.18801" lon="5.24292">
        <ele>197.21</ele>
        <time>2014-06-03T13:14:22Z</time>
      </trkpt>
      <trkpt lat="47.18798" lon="5.24286">
        <ele>197.69</ele>
        <time>2014-06-03T13:14:28Z</time>
      </trkpt>
      <trkpt lat="47.18789" lon="5.24272">
        <ele>197.69</ele>
        <time>2014-06-03T13:14:43Z</time>
      </trkpt>
      <trkpt lat="47.18781" lon="5.24274">
        <ele>197.69</ele>
        <time>2014-06-03T13:14:56Z</time>
      </trkpt>
      <trkpt lat="47.18777" lon="5.24276">
        <ele>197.69</ele>
        <time>2014-06-03T13:15:00Z</time>
      </trkpt>
      <trkpt lat="47.1877" lon="5.2428">
        <ele>197.69</ele>
        <time>2014-06-03T13:15:10Z</time>
      </trkpt>
      <trkpt lat="47.18757" lon="5.24291">
        <ele>197.69</ele>
        <time>2014-06-03T13:15:25Z</time>
      </trkpt>
      <trkpt lat="47.18752" lon="5.24295">
        <ele>197.69</ele>
        <time>2014-06-03T13:15:30Z</time>
      </trkpt>
      <trkpt lat="47.1874" lon="5.24307">
        <ele>197.69</ele>
        <time>2014-06-03T13:15:46Z</time>
      </trkpt>
      <trkpt lat="47.1873" lon="5.24319">
        <ele>197.69</ele>
        <time>2014-06-03T13:16:01Z</time>
      </trkpt>
      <trkpt lat="47.18733" lon="5.24324">
        <ele>197.69</ele>
        <time>2014-06-03T13:16:09Z</time>
      </trkpt>
      <trkpt lat="47.18736" lon="5.24327">
        <ele>197.69</ele>
        <time>2014-06-03T13:16:13Z</time>
      </trkpt>
      <trkpt lat="47.18748" lon="5.2433">
        <ele>197.69</ele>
        <time>2014-06-03T13:16:27Z</time>
      </trkpt>
      <trkpt lat="47.18753" lon="5.2433">
        <ele>197.69</ele>
        <time>2014-06-03T13:16:31Z</time>
      </trkpt>
      <trkpt lat="47.18771" lon="5.24331">
        <ele>197.69</ele>
        <time>2014-06-03T13:16:50Z</time>
      </trkpt>
      <trkpt lat="47.18785" lon="5.24331">
        <ele>197.69</ele>
        <time>2014-06-03T13:17:04Z</time>
      </trkpt>
      <trkpt lat="47.18797" lon="5.24334">
        <ele>197.69</ele>
        <time>2014-06-03T13:17:21Z</time>
      </trkpt>
      <trkpt lat="47.18808" lon="5.24333">
        <ele>197.69</ele>
        <time>2014-06-03T13:17:34Z</time>
      </trkpt>
      <trkpt lat="47.18818" lon="5.24334">
        <ele>197.69</ele>
        <time>2014-06-03T13:17:46Z</time>
      </trkpt>
      <trkpt lat="47.1883" lon="5.24336">
        <ele>197.69</ele>
        <time>2014-06-03T13:18:02Z</time>
      </trkpt>
      <trkpt lat="47.18838" lon="5.24339">
        <ele>197.69</ele>
        <time>2014-06-03T13:18:15Z</time>
      </trkpt>
      <trkpt lat="47.18852" lon="5.24345">
        <ele>197.69</ele>
        <time>2014-06-03T13:18:33Z</time>
      </trkpt>
      <trkpt lat="47.18859" lon="5.24348">
        <ele>197.69</ele>
        <time>2014-06-03T13:18:46Z</time>
      </trkpt>
      <trkpt lat="47.18866" lon="5.24351">
        <ele>197.69</ele>
        <time>2014-06-03T13:19:00Z</time>
      </trkpt>
      <trkpt lat="47.18874" lon="5.24355">
        <ele>197.69</ele>
        <time>2014-06-03T13:19:15Z</time>
      </trkpt>
      <trkpt lat="47.18877" lon="5.24357">
        <ele>198.17</ele>
        <time>2014-06-03T13:19:26Z</time>
      </trkpt>
      <trkpt lat="47.18887" lon="5.2436">
        <ele>197.69</ele>
        <time>2014-06-03T13:19:38Z</time>
      </trkpt>
      <trkpt lat="47.18888" lon="5.2436">
        <ele>197.69</ele>
        <time>2014-06-03T13:19:51Z</time>
      </trkpt>
      <trkpt lat="47.18891" lon="5.24361">
        <ele>198.17</ele>
        <time>2014-06-03T13:20:11Z</time>
      </trkpt>
      <trkpt lat="47.18891" lon="5.24361">
        <ele>198.17</ele>
        <time>2014-06-03T13:20:25Z</time>
      </trkpt>
      <trkpt lat="47.18891" lon="5.24361">
        <ele>198.17</ele>
        <time>2014-06-03T13:20:45Z</time>
      </trkpt>
      <trkpt lat="47.18891" lon="5.24361">
        <ele>198.17</ele>
        <time>2014-06-03T13:21:02Z</time>
      </trkpt>
      <trkpt lat="47.18891" lon="5.24361">
        <ele>198.17</ele>
        <time>2014-06-03T13:21:17Z</time>
      </trkpt>
      <trkpt lat="47.18888" lon="5.24359">
        <ele>197.69</ele>
        <time>2014-06-03T13:21:32Z</time>
      </trkpt>
      <trkpt lat="47.18885" lon="5.24358">
        <ele>198.17</ele>
        <time>2014-06-03T13:21:49Z</time>
      </trkpt>
      <trkpt lat="47.18883" lon="5.24358">
        <ele>198.17</ele>
        <time>2014-06-03T13:22:05Z</time>
      </trkpt>
      <trkpt lat="47.18875" lon="5.24353">
        <ele>197.69</ele>
        <time>2014-06-03T13:22:19Z</time>
      </trkpt>
      <trkpt lat="47.18867" lon="5.2435">
        <ele>197.69</ele>
        <time>2014-06-03T13:22:33Z</time>
      </trkpt>
      <trkpt lat="47.18864" lon="5.24349">
        <ele>197.69</ele>
        <time>2014-06-03T13:22:37Z</time>
      </trkpt>
      <trkpt lat="47.1886" lon="5.24347">
        <ele>197.69</ele>
        <time>2014-06-03T13:22:51Z</time>
      </trkpt>
      <trkpt lat="47.18847" lon="5.24344">
        <ele>197.69</ele>
        <time>2014-06-03T13:23:07Z</time>
      </trkpt>
      <trkpt lat="47.1884" lon="5.2434">
        <ele>197.69</ele>
        <time>2014-06-03T13:23:20Z</time>
      </trkpt>
      <trkpt lat="47.18824" lon="5.24338">
        <ele>197.69</ele>
        <time>2014-06-03T13:23:38Z</time>
      </trkpt>
      <trkpt lat="47.18809" lon="5.24336">
        <ele>197.69</ele>
        <time>2014-06-03T13:23:54Z</time>
      </trkpt>
      <trkpt lat="47.18799" lon="5.24334">
        <ele>197.69</ele>
        <time>2014-06-03T13:24:05Z</time>
      </trkpt>
      <trkpt lat="47.18784" lon="5.24331">
        <ele>197.69</ele>
        <time>2014-06-03T13:24:21Z</time>
      </trkpt>
      <trkpt lat="47.18774" lon="5.24331">
        <ele>197.69</ele>
        <time>2014-06-03T13:24:33Z</time>
      </trkpt>
      <trkpt lat="47.18768" lon="5.24329">
        <ele>197.69</ele>
        <time>2014-06-03T13:24:38Z</time>
      </trkpt>
      <trkpt lat="47.18759" lon="5.24329">
        <ele>197.69</ele>
        <time>2014-06-03T13:24:48Z</time>
      </trkpt>
      <trkpt lat="47.18744" lon="5.24327">
        <ele>197.69</ele>
        <time>2014-06-03T13:25:02Z</time>
      </trkpt>
      <trkpt lat="47.18729" lon="5.24325">
        <ele>197.69</ele>
        <time>2014-06-03T13:25:17Z</time>
      </trkpt>
      <trkpt lat="47.18712" lon="5.24325">
        <ele>197.21</ele>
        <time>2014-06-03T13:25:35Z</time>
      </trkpt>
      <trkpt lat="47.18702" lon="5.24325">
        <ele>197.69</ele>
        <time>2014-06-03T13:25:49Z</time>
      </trkpt>
      <trkpt lat="47.18691" lon="5.24325">
        <ele>197.21</ele>
        <time>2014-06-03T13:26:04Z</time>
      </trkpt>
      <trkpt lat="47.18673" lon="5.24332">
        <ele>197.69</ele>
        <time>2014-06-03T13:26:15Z</time>
      </trkpt>
      <trkpt lat="47.18666" lon="5.24349">
        <ele>197.21</ele>
        <time>2014-06-03T13:26:31Z</time>
      </trkpt>
      <trkpt lat="47.18666" lon="5.24353">
        <ele>197.21</ele>
        <time>2014-06-03T13:26:44Z</time>
      </trkpt>
      <trkpt lat="47.18662" lon="5.24356">
        <ele>197.21</ele>
        <time>2014-06-03T13:26:55Z</time>
      </trkpt>
      <trkpt lat="47.18663" lon="5.2436">
        <ele>197.21</ele>
        <time>2014-06-03T13:27:08Z</time>
      </trkpt>
      <trkpt lat="47.18663" lon="5.24358">
        <ele>197.21</ele>
        <time>2014-06-03T13:27:11Z</time>
      </trkpt>
      <trkpt lat="47.18663" lon="5.24354">
        <ele>197.69</ele>
        <time>2014-06-03T13:27:16Z</time>
      </trkpt>
      <trkpt lat="47.18655" lon="5.24355">
        <ele>197.69</ele>
        <time>2014-06-03T13:27:31Z</time>
      </trkpt>
      <trkpt lat="47.18649" lon="5.24357">
        <ele>197.21</ele>
        <time>2014-06-03T13:27:36Z</time>
      </trkpt>
      <trkpt lat="47.18646" lon="5.24356">
        <ele>197.21</ele>
        <time>2014-06-03T13:27:48Z</time>
      </trkpt>
      <trkpt lat="47.18638" lon="5.24354">
        <ele>197.21</ele>
        <time>2014-06-03T13:28:05Z</time>
      </trkpt>
      <trkpt lat="47.18637" lon="5.24351">
        <ele>197.69</ele>
        <time>2014-06-03T13:28:19Z</time>
      </trkpt>
      <trkpt lat="47.18632" lon="5.2435">
        <ele>197.21</ele>
        <time>2014-06-03T13:28:32Z</time>
      </trkpt>
      <trkpt lat="47.18629" lon="5.2434">
        <ele>197.21</ele>
        <time>2014-06-03T13:28:48Z</time>
      </trkpt>
      <trkpt lat="47.18624" lon="5.24335">
        <ele>197.69</ele>
        <time>2014-06-03T13:29:02Z</time>
      </trkpt>
      <trkpt lat="47.18618" lon="5.2433">
        <ele>197.69</ele>
        <time>2014-06-03T13:29:16Z</time>
      </trkpt>
      <trkpt lat="47.18615" lon="5.24322">
        <ele>197.69</ele>
        <time>2014-06-03T13:29:32Z</time>
      </trkpt>
      <trkpt lat="47.18614" lon="5.24321">
        <ele>197.69</ele>
        <time>2014-06-03T13:29:33Z</time>
      </trkpt>
      <trkpt lat="47.18613" lon="5.24317">
        <ele>197.69</ele>
        <time>2014-06-03T13:29:36Z</time>
      </trkpt>
      <trkpt lat="47.18603" lon="5.24298">
        <ele>198.65</ele>
        <time>2014-06-03T13:29:52Z</time>
      </trkpt>
      <trkpt lat="47.18598" lon="5.24285">
        <ele>198.65</ele>
        <time>2014-06-03T13:30:06Z</time>
      </trkpt>
      <trkpt lat="47.18596" lon="5.24278">
        <ele>199.13</ele>
        <time>2014-06-03T13:30:12Z</time>
      </trkpt>
      <trkpt lat="47.18585" lon="5.24259">
        <ele>199.61</ele>
        <time>2014-06-03T13:30:29Z</time>
      </trkpt>
      <trkpt lat="47.1857" lon="5.24254">
        <ele>200.09</ele>
        <time>2014-06-03T13:30:43Z</time>
      </trkpt>
      <trkpt lat="47.18557" lon="5.24254">
        <ele>201.05</ele>
        <time>2014-06-03T13:30:58Z</time>
      </trkpt>
      <trkpt lat="47.18537" lon="5.24248">
        <ele>201.53</ele>
        <time>2014-06-03T13:31:13Z</time>
      </trkpt>
      <trkpt lat="47.18525" lon="5.24246">
        <ele>202.49</ele>
        <time>2014-06-03T13:31:29Z</time>
      </trkpt>
      <trkpt lat="47.18511" lon="5.24243">
        <ele>202.98</ele>
        <time>2014-06-03T13:31:47Z</time>
      </trkpt>
      <trkpt lat="47.1851" lon="5.24236">
        <ele>203.46</ele>
        <time>2014-06-03T13:32:01Z</time>
      </trkpt>
      <trkpt lat="47.18512" lon="5.24229">
        <ele>203.46</ele>
        <time>2014-06-03T13:32:15Z</time>
      </trkpt>
      <trkpt lat="47.18513" lon="5.24228">
        <ele>203.46</ele>
        <time>2014-06-03T13:32:16Z</time>
      </trkpt>
      <trkpt lat="47.18517" lon="5.24221">
        <ele>203.94</ele>
        <time>2014-06-03T13:32:31Z</time>
      </trkpt>
      <trkpt lat="47.18518" lon="5.24215">
        <ele>203.94</ele>
        <time>2014-06-03T13:32:48Z</time>
      </trkpt>
      <trkpt lat="47.18525" lon="5.24202">
        <ele>203.94</ele>
        <time>2014-06-03T13:33:01Z</time>
      </trkpt>
      <trkpt lat="47.18532" lon="5.24187">
        <ele>204.42</ele>
        <time>2014-06-03T13:33:16Z</time>
      </trkpt>
      <trkpt lat="47.18539" lon="5.24171">
        <ele>204.42</ele>
        <time>2014-06-03T13:33:31Z</time>
      </trkpt>
      <trkpt lat="47.18549" lon="5.24161">
        <ele>204.42</ele>
        <time>2014-06-03T13:33:46Z</time>
      </trkpt>
      <trkpt lat="47.18556" lon="5.24147">
        <ele>204.42</ele>
        <time>2014-06-03T13:34:02Z</time>
      </trkpt>
      <trkpt lat="47.18557" lon="5.2413">
        <ele>204.42</ele>
        <time>2014-06-03T13:34:17Z</time>
      </trkpt>
      <trkpt lat="47.18556" lon="5.24109">
        <ele>204.9</ele>
        <time>2014-06-03T13:34:33Z</time>
      </trkpt>
      <trkpt lat="47.18556" lon="5.24105">
        <ele>204.42</ele>
        <time>2014-06-03T13:34:36Z</time>
      </trkpt>
      <trkpt lat="47.18553" lon="5.24086">
        <ele>204.42</ele>
        <time>2014-06-03T13:34:50Z</time>
      </trkpt>
      <trkpt lat="47.18549" lon="5.24067">
        <ele>204.42</ele>
        <time>2014-06-03T13:35:07Z</time>
      </trkpt>
      <trkpt lat="47.18546" lon="5.24049">
        <ele>203.94</ele>
        <time>2014-06-03T13:35:22Z</time>
      </trkpt>
      <trkpt lat="47.18542" lon="5.24028">
        <ele>203.94</ele>
        <time>2014-06-03T13:35:38Z</time>
      </trkpt>
      <trkpt lat="47.18537" lon="5.24005">
        <ele>203.94</ele>
        <time>2014-06-03T13:35:56Z</time>
      </trkpt>
      <trkpt lat="47.18536" lon="5.24003">
        <ele>203.94</ele>
        <time>2014-06-03T13:35:58Z</time>
      </trkpt>
      <trkpt lat="47.18529" lon="5.23982">
        <ele>203.94</ele>
        <time>2014-06-03T13:36:12Z</time>
      </trkpt>
      <trkpt lat="47.18521" lon="5.23961">
        <ele>204.42</ele>
        <time>2014-06-03T13:36:27Z</time>
      </trkpt>
      <trkpt lat="47.1852" lon="5.2396">
        <ele>204.42</ele>
        <time>2014-06-03T13:36:28Z</time>
      </trkpt>
      <trkpt lat="47.18509" lon="5.23934">
        <ele>205.38</ele>
        <time>2014-06-03T13:36:47Z</time>
      </trkpt>
      <trkpt lat="47.18503" lon="5.23923">
        <ele>205.38</ele>
        <time>2014-06-03T13:36:56Z</time>
      </trkpt>
      <trkpt lat="47.18495" lon="5.23896">
        <ele>206.34</ele>
        <time>2014-06-03T13:37:17Z</time>
      </trkpt>
      <trkpt lat="47.18494" lon="5.23894">
        <ele>206.34</ele>
        <time>2014-06-03T13:37:19Z</time>
      </trkpt>
      <trkpt lat="47.18498" lon="5.23863">
        <ele>206.82</ele>
        <time>2014-06-03T13:37:38Z</time>
      </trkpt>
      <trkpt lat="47.185" lon="5.23843">
        <ele>207.3</ele>
        <time>2014-06-03T13:37:52Z</time>
      </trkpt>
      <trkpt lat="47.18504" lon="5.23817">
        <ele>207.3</ele>
        <time>2014-06-03T13:38:09Z</time>
      </trkpt>
      <trkpt lat="47.18505" lon="5.23807">
        <ele>207.78</ele>
        <time>2014-06-03T13:38:16Z</time>
      </trkpt>
      <trkpt lat="47.18507" lon="5.23797">
        <ele>207.78</ele>
        <time>2014-06-03T13:38:23Z</time>
      </trkpt>
      <trkpt lat="47.1851" lon="5.23783">
        <ele>208.26</ele>
        <time>2014-06-03T13:38:33Z</time>
      </trkpt>
      <trkpt lat="47.18513" lon="5.2376">
        <ele>208.26</ele>
        <time>2014-06-03T13:38:49Z</time>
      </trkpt>
      <trkpt lat="47.18519" lon="5.23734">
        <ele>208.74</ele>
        <time>2014-06-03T13:39:08Z</time>
      </trkpt>
      <trkpt lat="47.18517" lon="5.23723">
        <ele>208.74</ele>
        <time>2014-06-03T13:39:16Z</time>
      </trkpt>
      <trkpt lat="47.18509" lon="5.2371">
        <ele>208.26</ele>
        <time>2014-06-03T13:39:30Z</time>
      </trkpt>
      <trkpt lat="47.18504" lon="5.23707">
        <ele>208.26</ele>
        <time>2014-06-03T13:39:42Z</time>
      </trkpt>
      <trkpt lat="47.18495" lon="5.23711">
        <ele>208.26</ele>
        <time>2014-06-03T13:39:51Z</time>
      </trkpt>
      <trkpt lat="47.18491" lon="5.23712">
        <ele>208.26</ele>
        <time>2014-06-03T13:39:55Z</time>
      </trkpt>
      <trkpt lat="47.18481" lon="5.23721">
        <ele>208.26</ele>
        <time>2014-06-03T13:40:09Z</time>
      </trkpt>
      <trkpt lat="47.18466" lon="5.23739">
        <ele>208.26</ele>
        <time>2014-06-03T13:40:28Z</time>
      </trkpt>
      <trkpt lat="47.18463" lon="5.23741">
        <ele>208.74</ele>
        <time>2014-06-03T13:40:31Z</time>
      </trkpt>
      <trkpt lat="47.18459" lon="5.23745">
        <ele>208.74</ele>
        <time>2014-06-03T13:40:38Z</time>
      </trkpt>
      <trkpt lat="47.18442" lon="5.23761">
        <ele>208.26</ele>
        <time>2014-06-03T13:40:58Z</time>
      </trkpt>
      <trkpt lat="47.1844" lon="5.23763">
        <ele>208.26</ele>
        <time>2014-06-03T13:41:01Z</time>
      </trkpt>
      <trkpt lat="47.18437" lon="5.23766">
        <ele>208.26</ele>
        <time>2014-06-03T13:41:04Z</time>
      </trkpt>
      <trkpt lat="47.18427" lon="5.23778">
        <ele>208.26</ele>
        <time>2014-06-03T13:41:20Z</time>
      </trkpt>
      <trkpt lat="47.18417" lon="5.23787">
        <ele>208.26</ele>
        <time>2014-06-03T13:41:32Z</time>
      </trkpt>
      <trkpt lat="47.18413" lon="5.2379">
        <ele>208.26</ele>
        <time>2014-06-03T13:41:37Z</time>
      </trkpt>
      <trkpt lat="47.18401" lon="5.23807">
        <ele>209.22</ele>
        <time>2014-06-03T13:41:56Z</time>
      </trkpt>
      <trkpt lat="47.18389" lon="5.2382">
        <ele>209.22</ele>
        <time>2014-06-03T13:42:13Z</time>
      </trkpt>
      <trkpt lat="47.18389" lon="5.23822">
        <ele>208.74</ele>
        <time>2014-06-03T13:42:19Z</time>
      </trkpt>
      <trkpt lat="47.18387" lon="5.23823">
        <ele>209.22</ele>
        <time>2014-06-03T13:42:21Z</time>
      </trkpt>
      <trkpt lat="47.18372" lon="5.23843">
        <ele>209.22</ele>
        <time>2014-06-03T13:42:40Z</time>
      </trkpt>
      <trkpt lat="47.1836" lon="5.23856">
        <ele>209.22</ele>
        <time>2014-06-03T13:42:56Z</time>
      </trkpt>
      <trkpt lat="47.18351" lon="5.23861">
        <ele>209.22</ele>
        <time>2014-06-03T13:43:08Z</time>
      </trkpt>
      <trkpt lat="47.18336" lon="5.23847">
        <ele>209.22</ele>
        <time>2014-06-03T13:43:27Z</time>
      </trkpt>
      <trkpt lat="47.18323" lon="5.23829">
        <ele>209.22</ele>
        <time>2014-06-03T13:43:43Z</time>
      </trkpt>
      <trkpt lat="47.18308" lon="5.23813">
        <ele>209.22</ele>
        <time>2014-06-03T13:44:01Z</time>
      </trkpt>
      <trkpt lat="47.18301" lon="5.23801">
        <ele>209.22</ele>
        <time>2014-06-03T13:44:12Z</time>
      </trkpt>
      <trkpt lat="47.18299" lon="5.23799">
        <ele>209.22</ele>
        <time>2014-06-03T13:44:15Z</time>
      </trkpt>
      <trkpt lat="47.18285" lon="5.2378">
        <ele>209.22</ele>
        <time>2014-06-03T13:44:33Z</time>
      </trkpt>
      <trkpt lat="47.18271" lon="5.23762">
        <ele>209.22</ele>
        <time>2014-06-03T13:44:52Z</time>
      </trkpt>
      <trkpt lat="47.18259" lon="5.23744">
        <ele>209.22</ele>
        <time>2014-06-03T13:45:08Z</time>
      </trkpt>
      <trkpt lat="47.18246" lon="5.23729">
        <ele>209.22</ele>
        <time>2014-06-03T13:45:24Z</time>
      </trkpt>
      <trkpt lat="47.18245" lon="5.23725">
        <ele>209.22</ele>
        <time>2014-06-03T13:45:27Z</time>
      </trkpt>
      <trkpt lat="47.18231" lon="5.23707">
        <ele>208.74</ele>
        <time>2014-06-03T13:45:45Z</time>
      </trkpt>
      <trkpt lat="47.18221" lon="5.23691">
        <ele>209.22</ele>
        <time>2014-06-03T13:46:01Z</time>
      </trkpt>
      <trkpt lat="47.18208" lon="5.23673">
        <ele>209.22</ele>
        <time>2014-06-03T13:46:19Z</time>
      </trkpt>
      <trkpt lat="47.18198" lon="5.2366">
        <ele>209.22</ele>
        <time>2014-06-03T13:46:34Z</time>
      </trkpt>
      <trkpt lat="47.1819" lon="5.23648">
        <ele>209.22</ele>
        <time>2014-06-03T13:46:51Z</time>
      </trkpt>
      <trkpt lat="47.18179" lon="5.23634">
        <ele>209.22</ele>
        <time>2014-06-03T13:47:08Z</time>
      </trkpt>
      <trkpt lat="47.18169" lon="5.23619">
        <ele>209.22</ele>
        <time>2014-06-03T13:47:23Z</time>
      </trkpt>
      <trkpt lat="47.18161" lon="5.23605">
        <ele>209.22</ele>
        <time>2014-06-03T13:47:38Z</time>
      </trkpt>
      <trkpt lat="47.18155" lon="5.23593">
        <ele>209.22</ele>
        <time>2014-06-03T13:47:51Z</time>
      </trkpt>
      <trkpt lat="47.18149" lon="5.23583">
        <ele>209.22</ele>
        <time>2014-06-03T13:47:58Z</time>
      </trkpt>
      <trkpt lat="47.1814" lon="5.23569">
        <ele>209.22</ele>
        <time>2014-06-03T13:48:13Z</time>
      </trkpt>
      <trkpt lat="47.18126" lon="5.23551">
        <ele>209.22</ele>
        <time>2014-06-03T13:48:30Z</time>
      </trkpt>
      <trkpt lat="47.18112" lon="5.23534">
        <ele>209.22</ele>
        <time>2014-06-03T13:48:46Z</time>
      </trkpt>
      <trkpt lat="47.18093" lon="5.23518">
        <ele>209.22</ele>
        <time>2014-06-03T13:49:04Z</time>
      </trkpt>
      <trkpt lat="47.18082" lon="5.23505">
        <ele>209.22</ele>
        <time>2014-06-03T13:49:19Z</time>
      </trkpt>
      <trkpt lat="47.18071" lon="5.23487">
        <ele>210.67</ele>
        <time>2014-06-03T13:49:37Z</time>
      </trkpt>
      <trkpt lat="47.18065" lon="5.23475">
        <ele>209.22</ele>
        <time>2014-06-03T13:49:52Z</time>
      </trkpt>
      <trkpt lat="47.18063" lon="5.23463">
        <ele>209.22</ele>
        <time>2014-06-03T13:50:06Z</time>
      </trkpt>
      <trkpt lat="47.18065" lon="5.23441">
        <ele>209.22</ele>
        <time>2014-06-03T13:50:20Z</time>
      </trkpt>
      <trkpt lat="47.18069" lon="5.23425">
        <ele>209.22</ele>
        <time>2014-06-03T13:50:29Z</time>
      </trkpt>
      <trkpt lat="47.18071" lon="5.23407">
        <ele>209.7</ele>
        <time>2014-06-03T13:50:44Z</time>
      </trkpt>
      <trkpt lat="47.18075" lon="5.23395">
        <ele>209.7</ele>
        <time>2014-06-03T13:51:02Z</time>
      </trkpt>
      <trkpt lat="47.18083" lon="5.23373">
        <ele>210.19</ele>
        <time>2014-06-03T13:51:19Z</time>
      </trkpt>
      <trkpt lat="47.18093" lon="5.2335">
        <ele>210.67</ele>
        <time>2014-06-03T13:51:37Z</time>
      </trkpt>
      <trkpt lat="47.18102" lon="5.23334">
        <ele>211.15</ele>
        <time>2014-06-03T13:51:52Z</time>
      </trkpt>
      <trkpt lat="47.18108" lon="5.23323">
        <ele>211.15</ele>
        <time>2014-06-03T13:52:05Z</time>
      </trkpt>
      <trkpt lat="47.18108" lon="5.23323">
        <ele>211.63</ele>
        <time>2014-06-03T13:52:19Z</time>
      </trkpt>
      <trkpt lat="47.18108" lon="5.23323">
        <ele>212.11</ele>
        <time>2014-06-03T13:52:55Z</time>
      </trkpt>
      <trkpt lat="47.18112" lon="5.2332">
        <ele>212.59</ele>
        <time>2014-06-03T13:53:03Z</time>
      </trkpt>
      <trkpt lat="47.1813" lon="5.23304">
        <ele>212.59</ele>
        <time>2014-06-03T13:53:16Z</time>
      </trkpt>
      <trkpt lat="47.18144" lon="5.23291">
        <ele>212.59</ele>
        <time>2014-06-03T13:53:23Z</time>
      </trkpt>
      <trkpt lat="47.18146" lon="5.23284">
        <ele>212.59</ele>
        <time>2014-06-03T13:53:26Z</time>
      </trkpt>
      <trkpt lat="47.18157" lon="5.23271">
        <ele>213.07</ele>
        <time>2014-06-03T13:53:35Z</time>
      </trkpt>
      <trkpt lat="47.18173" lon="5.23245">
        <ele>213.55</ele>
        <time>2014-06-03T13:53:51Z</time>
      </trkpt>
      <trkpt lat="47.18186" lon="5.23224">
        <ele>213.55</ele>
        <time>2014-06-03T13:54:05Z</time>
      </trkpt>
      <trkpt lat="47.1819" lon="5.23216">
        <ele>213.55</ele>
        <time>2014-06-03T13:54:09Z</time>
      </trkpt>
      <trkpt lat="47.18203" lon="5.23185">
        <ele>214.03</ele>
        <time>2014-06-03T13:54:27Z</time>
      </trkpt>
      <trkpt lat="47.18216" lon="5.23163">
        <ele>214.03</ele>
        <time>2014-06-03T13:54:42Z</time>
      </trkpt>
      <trkpt lat="47.18224" lon="5.23148">
        <ele>214.03</ele>
        <time>2014-06-03T13:54:50Z</time>
      </trkpt>
      <trkpt lat="47.18246" lon="5.23118">
        <ele>214.03</ele>
        <time>2014-06-03T13:55:06Z</time>
      </trkpt>
      <trkpt lat="47.18252" lon="5.23102">
        <ele>214.03</ele>
        <time>2014-06-03T13:55:14Z</time>
      </trkpt>
      <trkpt lat="47.18265" lon="5.23083">
        <ele>214.51</ele>
        <time>2014-06-03T13:55:30Z</time>
      </trkpt>
      <trkpt lat="47.18278" lon="5.23062">
        <ele>214.51</ele>
        <time>2014-06-03T13:55:47Z</time>
      </trkpt>
      <trkpt lat="47.18288" lon="5.23045">
        <ele>214.51</ele>
        <time>2014-06-03T13:56:01Z</time>
      </trkpt>
      <trkpt lat="47.18302" lon="5.23024">
        <ele>214.99</ele>
        <time>2014-06-03T13:56:18Z</time>
      </trkpt>
      <trkpt lat="47.18317" lon="5.2301">
        <ele>214.99</ele>
        <time>2014-06-03T13:56:34Z</time>
      </trkpt>
      <trkpt lat="47.18331" lon="5.22996">
        <ele>215.47</ele>
        <time>2014-06-03T13:56:52Z</time>
      </trkpt>
      <trkpt lat="47.18339" lon="5.22981">
        <ele>215.47</ele>
        <time>2014-06-03T13:57:05Z</time>
      </trkpt>
      <trkpt lat="47.18348" lon="5.22967">
        <ele>215.47</ele>
        <time>2014-06-03T13:57:20Z</time>
      </trkpt>
      <trkpt lat="47.18357" lon="5.22956">
        <ele>215.47</ele>
        <time>2014-06-03T13:57:37Z</time>
      </trkpt>
      <trkpt lat="47.18365" lon="5.22943">
        <ele>215.95</ele>
        <time>2014-06-03T13:57:52Z</time>
      </trkpt>
      <trkpt lat="47.18373" lon="5.22936">
        <ele>215.95</ele>
        <time>2014-06-03T13:58:07Z</time>
      </trkpt>
      <trkpt lat="47.18387" lon="5.22922">
        <ele>215.95</ele>
        <time>2014-06-03T13:58:25Z</time>
      </trkpt>
      <trkpt lat="47.184" lon="5.22901">
        <ele>216.43</ele>
        <time>2014-06-03T13:58:45Z</time>
      </trkpt>
      <trkpt lat="47.18413" lon="5.22882">
        <ele>216.91</ele>
        <time>2014-06-03T13:59:01Z</time>
      </trkpt>
      <trkpt lat="47.1842" lon="5.22871">
        <ele>216.91</ele>
        <time>2014-06-03T13:59:15Z</time>
      </trkpt>
      <trkpt lat="47.18432" lon="5.22858">
        <ele>217.4</ele>
        <time>2014-06-03T13:59:29Z</time>
      </trkpt>
      <trkpt lat="47.18444" lon="5.22842">
        <ele>217.88</ele>
        <time>2014-06-03T13:59:45Z</time>
      </trkpt>
      <trkpt lat="47.18456" lon="5.22832">
        <ele>217.88</ele>
        <time>2014-06-03T14:00:00Z</time>
      </trkpt>
      <trkpt lat="47.18465" lon="5.22831">
        <ele>218.36</ele>
        <time>2014-06-03T14:00:13Z</time>
      </trkpt>
      <trkpt lat="47.18476" lon="5.22839">
        <ele>218.36</ele>
        <time>2014-06-03T14:00:27Z</time>
      </trkpt>
      <trkpt lat="47.18488" lon="5.22846">
        <ele>218.36</ele>
        <time>2014-06-03T14:00:40Z</time>
      </trkpt>
      <trkpt lat="47.18505" lon="5.22857">
        <ele>219.32</ele>
        <time>2014-06-03T14:00:59Z</time>
      </trkpt>
      <trkpt lat="47.18522" lon="5.22862">
        <ele>219.32</ele>
        <time>2014-06-03T14:01:13Z</time>
      </trkpt>
      <trkpt lat="47.1853" lon="5.22866">
        <ele>219.8</ele>
        <time>2014-06-03T14:01:21Z</time>
      </trkpt>
      <trkpt lat="47.18539" lon="5.22871">
        <ele>220.28</ele>
        <time>2014-06-03T14:01:31Z</time>
      </trkpt>
      <trkpt lat="47.18543" lon="5.22872">
        <ele>220.76</ele>
        <time>2014-06-03T14:01:36Z</time>
      </trkpt>
      <trkpt lat="47.18553" lon="5.22877">
        <ele>221.72</ele>
        <time>2014-06-03T14:01:52Z</time>
      </trkpt>
      <trkpt lat="47.18563" lon="5.22881">
        <ele>223.16</ele>
        <time>2014-06-03T14:02:06Z</time>
      </trkpt>
      <trkpt lat="47.18569" lon="5.22873">
        <ele>223.16</ele>
        <time>2014-06-03T14:02:24Z</time>
      </trkpt>
      <trkpt lat="47.18572" lon="5.22865">
        <ele>223.16</ele>
        <time>2014-06-03T14:02:42Z</time>
      </trkpt>
      <trkpt lat="47.18579" lon="5.22852">
        <ele>223.64</ele>
        <time>2014-06-03T14:02:56Z</time>
      </trkpt>
      <trkpt lat="47.1858" lon="5.22849">
        <ele>223.64</ele>
        <time>2014-06-03T14:02:58Z</time>
      </trkpt>
      <trkpt lat="47.18587" lon="5.22838">
        <ele>224.12</ele>
        <time>2014-06-03T14:03:08Z</time>
      </trkpt>
      <trkpt lat="47.18591" lon="5.22831">
        <ele>224.12</ele>
        <time>2014-06-03T14:03:14Z</time>
      </trkpt>
      <trkpt lat="47.18598" lon="5.22818">
        <ele>224.61</ele>
        <time>2014-06-03T14:03:28Z</time>
      </trkpt>
      <trkpt lat="47.18601" lon="5.22809">
        <ele>225.09</ele>
        <time>2014-06-03T14:03:43Z</time>
      </trkpt>
      <trkpt lat="47.18608" lon="5.22792">
        <ele>225.57</ele>
        <time>2014-06-03T14:03:58Z</time>
      </trkpt>
      <trkpt lat="47.18617" lon="5.22781">
        <ele>226.05</ele>
        <time>2014-06-03T14:04:13Z</time>
      </trkpt>
      <trkpt lat="47.18626" lon="5.22764">
        <ele>226.53</ele>
        <time>2014-06-03T14:04:28Z</time>
      </trkpt>
      <trkpt lat="47.18635" lon="5.22755">
        <ele>227.49</ele>
        <time>2014-06-03T14:04:43Z</time>
      </trkpt>
      <trkpt lat="47.18639" lon="5.22749">
        <ele>227.49</ele>
        <time>2014-06-03T14:04:58Z</time>
      </trkpt>
      <trkpt lat="47.18646" lon="5.22744">
        <ele>227.97</ele>
        <time>2014-06-03T14:05:16Z</time>
      </trkpt>
      <trkpt lat="47.18646" lon="5.22742">
        <ele>228.45</ele>
        <time>2014-06-03T14:05:31Z</time>
      </trkpt>
      <trkpt lat="47.18651" lon="5.22729">
        <ele>230.37</ele>
        <time>2014-06-03T14:05:47Z</time>
      </trkpt>
      <trkpt lat="47.1866" lon="5.22709">
        <ele>229.89</ele>
        <time>2014-06-03T14:06:03Z</time>
      </trkpt>
      <trkpt lat="47.18662" lon="5.22701">
        <ele>230.37</ele>
        <time>2014-06-03T14:06:18Z</time>
      </trkpt>
      <trkpt lat="47.18671" lon="5.22683">
        <ele>231.33</ele>
        <time>2014-06-03T14:06:32Z</time>
      </trkpt>
      <trkpt lat="47.18679" lon="5.22662">
        <ele>231.81</ele>
        <time>2014-06-03T14:06:50Z</time>
      </trkpt>
      <trkpt lat="47.18686" lon="5.22641">
        <ele>232.78</ele>
        <time>2014-06-03T14:07:07Z</time>
      </trkpt>
      <trkpt lat="47.1869" lon="5.2262">
        <ele>233.74</ele>
        <time>2014-06-03T14:07:24Z</time>
      </trkpt>
      <trkpt lat="47.18695" lon="5.22603">
        <ele>234.22</ele>
        <time>2014-06-03T14:07:39Z</time>
      </trkpt>
      <trkpt lat="47.18696" lon="5.22577">
        <ele>234.7</ele>
        <time>2014-06-03T14:07:54Z</time>
      </trkpt>
      <trkpt lat="47.18698" lon="5.22552">
        <ele>235.66</ele>
        <time>2014-06-03T14:08:10Z</time>
      </trkpt>
      <trkpt lat="47.187" lon="5.2253">
        <ele>236.14</ele>
        <time>2014-06-03T14:08:26Z</time>
      </trkpt>
      <trkpt lat="47.18703" lon="5.22506">
        <ele>236.62</ele>
        <time>2014-06-03T14:08:40Z</time>
      </trkpt>
      <trkpt lat="47.18703" lon="5.225">
        <ele>237.1</ele>
        <time>2014-06-03T14:08:44Z</time>
      </trkpt>
      <trkpt lat="47.18711" lon="5.22475">
        <ele>237.58</ele>
        <time>2014-06-03T14:08:59Z</time>
      </trkpt>
      <trkpt lat="47.18713" lon="5.22451">
        <ele>237.58</ele>
        <time>2014-06-03T14:09:14Z</time>
      </trkpt>
      <trkpt lat="47.18718" lon="5.22436">
        <ele>238.06</ele>
        <time>2014-06-03T14:09:26Z</time>
      </trkpt>
      <trkpt lat="47.18726" lon="5.22405">
        <ele>238.54</ele>
        <time>2014-06-03T14:09:45Z</time>
      </trkpt>
      <trkpt lat="47.18727" lon="5.22397">
        <ele>239.99</ele>
        <time>2014-06-03T14:09:49Z</time>
      </trkpt>
      <trkpt lat="47.18736" lon="5.22373">
        <ele>238.54</ele>
        <time>2014-06-03T14:10:05Z</time>
      </trkpt>
      <trkpt lat="47.18736" lon="5.22351">
        <ele>238.06</ele>
        <time>2014-06-03T14:10:18Z</time>
      </trkpt>
      <trkpt lat="47.18736" lon="5.22325">
        <ele>237.58</ele>
        <time>2014-06-03T14:10:35Z</time>
      </trkpt>
      <trkpt lat="47.18735" lon="5.22301">
        <ele>236.62</ele>
        <time>2014-06-03T14:10:51Z</time>
      </trkpt>
      <trkpt lat="47.18734" lon="5.22274">
        <ele>235.66</ele>
        <time>2014-06-03T14:11:06Z</time>
      </trkpt>
      <trkpt lat="47.18726" lon="5.22254">
        <ele>235.66</ele>
        <time>2014-06-03T14:11:20Z</time>
      </trkpt>
      <trkpt lat="47.18724" lon="5.22227">
        <ele>234.7</ele>
        <time>2014-06-03T14:11:39Z</time>
      </trkpt>
      <trkpt lat="47.18725" lon="5.22205">
        <ele>234.7</ele>
        <time>2014-06-03T14:11:52Z</time>
      </trkpt>
      <trkpt lat="47.18723" lon="5.22202">
        <ele>234.22</ele>
        <time>2014-06-03T14:11:54Z</time>
      </trkpt>
      <trkpt lat="47.18721" lon="5.22194">
        <ele>234.22</ele>
        <time>2014-06-03T14:11:59Z</time>
      </trkpt>
      <trkpt lat="47.18719" lon="5.22171">
        <ele>233.74</ele>
        <time>2014-06-03T14:12:14Z</time>
      </trkpt>
      <trkpt lat="47.18715" lon="5.22146">
        <ele>233.26</ele>
        <time>2014-06-03T14:12:29Z</time>
      </trkpt>
      <trkpt lat="47.18713" lon="5.2213">
        <ele>232.78</ele>
        <time>2014-06-03T14:12:40Z</time>
      </trkpt>
      <trkpt lat="47.18711" lon="5.22107">
        <ele>232.3</ele>
        <time>2014-06-03T14:12:55Z</time>
      </trkpt>
      <trkpt lat="47.18714" lon="5.22088">
        <ele>232.3</ele>
        <time>2014-06-03T14:13:09Z</time>
      </trkpt>
      <trkpt lat="47.18719" lon="5.22083">
        <ele>232.3</ele>
        <time>2014-06-03T14:13:13Z</time>
      </trkpt>
      <trkpt lat="47.18733" lon="5.22073">
        <ele>232.78</ele>
        <time>2014-06-03T14:13:30Z</time>
      </trkpt>
      <trkpt lat="47.1874" lon="5.22068">
        <ele>232.78</ele>
        <time>2014-06-03T14:13:37Z</time>
      </trkpt>
      <trkpt lat="47.18749" lon="5.2206">
        <ele>233.26</ele>
        <time>2014-06-03T14:13:56Z</time>
      </trkpt>
      <trkpt lat="47.18766" lon="5.22052">
        <ele>234.22</ele>
        <time>2014-06-03T14:14:12Z</time>
      </trkpt>
      <trkpt lat="47.18768" lon="5.2205">
        <ele>234.22</ele>
        <time>2014-06-03T14:14:15Z</time>
      </trkpt>
      <trkpt lat="47.18781" lon="5.22035">
        <ele>234.22</ele>
        <time>2014-06-03T14:14:31Z</time>
      </trkpt>
      <trkpt lat="47.18784" lon="5.22034">
        <ele>234.22</ele>
        <time>2014-06-03T14:14:34Z</time>
      </trkpt>
      <trkpt lat="47.18801" lon="5.22022">
        <ele>234.22</ele>
        <time>2014-06-03T14:14:53Z</time>
      </trkpt>
      <trkpt lat="47.18815" lon="5.22013">
        <ele>234.7</ele>
        <time>2014-06-03T14:15:08Z</time>
      </trkpt>
      <trkpt lat="47.1882" lon="5.22011">
        <ele>234.7</ele>
        <time>2014-06-03T14:15:12Z</time>
      </trkpt>
      <trkpt lat="47.18826" lon="5.22006">
        <ele>234.7</ele>
        <time>2014-06-03T14:15:18Z</time>
      </trkpt>
      <trkpt lat="47.18832" lon="5.21996">
        <ele>234.7</ele>
        <time>2014-06-03T14:15:28Z</time>
      </trkpt>
      <trkpt lat="47.18833" lon="5.21993">
        <ele>234.7</ele>
        <time>2014-06-03T14:15:30Z</time>
      </trkpt>
      <trkpt lat="47.18839" lon="5.21976">
        <ele>234.22</ele>
        <time>2014-06-03T14:15:45Z</time>
      </trkpt>
      <trkpt lat="47.18838" lon="5.21975">
        <ele>234.22</ele>
        <time>2014-06-03T14:15:52Z</time>
      </trkpt>
      <trkpt lat="47.18836" lon="5.21973">
        <ele>234.7</ele>
        <time>2014-06-03T14:15:55Z</time>
      </trkpt>
      <trkpt lat="47.18823" lon="5.21956">
        <ele>234.22</ele>
        <time>2014-06-03T14:16:13Z</time>
      </trkpt>
      <trkpt lat="47.18807" lon="5.2194">
        <ele>233.26</ele>
        <time>2014-06-03T14:16:31Z</time>
      </trkpt>
      <trkpt lat="47.18793" lon="5.21927">
        <ele>231.81</ele>
        <time>2014-06-03T14:16:46Z</time>
      </trkpt>
      <trkpt lat="47.18792" lon="5.21926">
        <ele>231.81</ele>
        <time>2014-06-03T14:16:47Z</time>
      </trkpt>
      <trkpt lat="47.18775" lon="5.21909">
        <ele>230.37</ele>
        <time>2014-06-03T14:17:05Z</time>
      </trkpt>
      <trkpt lat="47.18759" lon="5.21891">
        <ele>228.93</ele>
        <time>2014-06-03T14:17:24Z</time>
      </trkpt>
      <trkpt lat="47.18748" lon="5.21882">
        <ele>227.97</ele>
        <time>2014-06-03T14:17:36Z</time>
      </trkpt>
      <trkpt lat="47.18745" lon="5.21879">
        <ele>227.97</ele>
        <time>2014-06-03T14:17:39Z</time>
      </trkpt>
      <trkpt lat="47.18742" lon="5.21874">
        <ele>229.89</ele>
        <time>2014-06-03T14:17:54Z</time>
      </trkpt>
      <trkpt lat="47.18745" lon="5.21866">
        <ele>227.49</ele>
        <time>2014-06-03T14:18:02Z</time>
      </trkpt>
      <trkpt lat="47.18757" lon="5.21848">
        <ele>228.45</ele>
        <time>2014-06-03T14:18:19Z</time>
      </trkpt>
      <trkpt lat="47.18758" lon="5.21848">
        <ele>228.93</ele>
        <time>2014-06-03T14:18:20Z</time>
      </trkpt>
      <trkpt lat="47.18772" lon="5.21824">
        <ele>228.93</ele>
        <time>2014-06-03T14:18:40Z</time>
      </trkpt>
      <trkpt lat="47.18784" lon="5.21804">
        <ele>229.41</ele>
        <time>2014-06-03T14:18:57Z</time>
      </trkpt>
      <trkpt lat="47.18794" lon="5.21788">
        <ele>229.89</ele>
        <time>2014-06-03T14:19:11Z</time>
      </trkpt>
      <trkpt lat="47.18804" lon="5.21772">
        <ele>229.41</ele>
        <time>2014-06-03T14:19:26Z</time>
      </trkpt>
      <trkpt lat="47.18811" lon="5.21761">
        <ele>230.37</ele>
        <time>2014-06-03T14:19:36Z</time>
      </trkpt>
      <trkpt lat="47.18821" lon="5.21744">
        <ele>230.37</ele>
        <time>2014-06-03T14:19:51Z</time>
      </trkpt>
      <trkpt lat="47.18829" lon="5.21731">
        <ele>230.85</ele>
        <time>2014-06-03T14:20:03Z</time>
      </trkpt>
      <trkpt lat="47.18843" lon="5.21709">
        <ele>232.3</ele>
        <time>2014-06-03T14:20:22Z</time>
      </trkpt>
      <trkpt lat="47.18849" lon="5.21699">
        <ele>232.3</ele>
        <time>2014-06-03T14:20:32Z</time>
      </trkpt>
      <trkpt lat="47.18853" lon="5.21694">
        <ele>233.26</ele>
        <time>2014-06-03T14:20:37Z</time>
      </trkpt>
      <trkpt lat="47.18867" lon="5.21672">
        <ele>234.22</ele>
        <time>2014-06-03T14:20:56Z</time>
      </trkpt>
      <trkpt lat="47.18881" lon="5.21648">
        <ele>234.22</ele>
        <time>2014-06-03T14:21:16Z</time>
      </trkpt>
      <trkpt lat="47.18896" lon="5.21626">
        <ele>234.7</ele>
        <time>2014-06-03T14:21:36Z</time>
      </trkpt>
      <trkpt lat="47.18909" lon="5.21606">
        <ele>234.7</ele>
        <time>2014-06-03T14:21:54Z</time>
      </trkpt>
      <trkpt lat="47.18925" lon="5.21581">
        <ele>234.7</ele>
        <time>2014-06-03T14:22:15Z</time>
      </trkpt>
      <trkpt lat="47.18931" lon="5.21569">
        <ele>235.18</ele>
        <time>2014-06-03T14:22:25Z</time>
      </trkpt>
      <trkpt lat="47.18936" lon="5.21563">
        <ele>234.7</ele>
        <time>2014-06-03T14:22:31Z</time>
      </trkpt>
      <trkpt lat="47.18951" lon="5.2154">
        <ele>235.18</ele>
        <time>2014-06-03T14:22:51Z</time>
      </trkpt>
      <trkpt lat="47.18964" lon="5.21519">
        <ele>235.18</ele>
        <time>2014-06-03T14:23:08Z</time>
      </trkpt>
      <trkpt lat="47.18976" lon="5.21501">
        <ele>235.66</ele>
        <time>2014-06-03T14:23:26Z</time>
      </trkpt>
      <trkpt lat="47.1899" lon="5.2148">
        <ele>235.18</ele>
        <time>2014-06-03T14:23:45Z</time>
      </trkpt>
      <trkpt lat="47.19004" lon="5.21459">
        <ele>235.18</ele>
        <time>2014-06-03T14:24:03Z</time>
      </trkpt>
      <trkpt lat="47.19016" lon="5.2144">
        <ele>235.66</ele>
        <time>2014-06-03T14:24:21Z</time>
      </trkpt>
      <trkpt lat="47.1902" lon="5.21433">
        <ele>235.18</ele>
        <time>2014-06-03T14:24:28Z</time>
      </trkpt>
      <trkpt lat="47.19033" lon="5.2141">
        <ele>236.14</ele>
        <time>2014-06-03T14:24:47Z</time>
      </trkpt>
      <trkpt lat="47.19045" lon="5.21388">
        <ele>237.1</ele>
        <time>2014-06-03T14:25:06Z</time>
      </trkpt>
      <trkpt lat="47.19056" lon="5.21364">
        <ele>237.1</ele>
        <time>2014-06-03T14:25:24Z</time>
      </trkpt>
      <trkpt lat="47.19067" lon="5.21344">
        <ele>237.1</ele>
        <time>2014-06-03T14:25:41Z</time>
      </trkpt>
      <trkpt lat="47.19078" lon="5.21322">
        <ele>238.54</ele>
        <time>2014-06-03T14:25:59Z</time>
      </trkpt>
      <trkpt lat="47.19086" lon="5.21303">
        <ele>237.1</ele>
        <time>2014-06-03T14:26:14Z</time>
      </trkpt>
      <trkpt lat="47.19095" lon="5.21291">
        <ele>236.14</ele>
        <time>2014-06-03T14:26:29Z</time>
      </trkpt>
      <trkpt lat="47.19098" lon="5.21293">
        <ele>236.14</ele>
        <time>2014-06-03T14:26:37Z</time>
      </trkpt>
      <trkpt lat="47.19101" lon="5.21298">
        <ele>236.62</ele>
        <time>2014-06-03T14:26:41Z</time>
      </trkpt>
      <trkpt lat="47.19107" lon="5.21311">
        <ele>236.62</ele>
        <time>2014-06-03T14:26:54Z</time>
      </trkpt>
      <trkpt lat="47.19116" lon="5.21323">
        <ele>237.1</ele>
        <time>2014-06-03T14:27:07Z</time>
      </trkpt>
      <trkpt lat="47.19121" lon="5.21333">
        <ele>236.62</ele>
        <time>2014-06-03T14:27:23Z</time>
      </trkpt>
      <trkpt lat="47.19124" lon="5.21339">
        <ele>237.1</ele>
        <time>2014-06-03T14:27:35Z</time>
      </trkpt>
      <trkpt lat="47.19128" lon="5.21353">
        <ele>236.62</ele>
        <time>2014-06-03T14:27:52Z</time>
      </trkpt>
      <trkpt lat="47.19127" lon="5.21355">
        <ele>237.1</ele>
        <time>2014-06-03T14:27:55Z</time>
      </trkpt>
      <trkpt lat="47.1913" lon="5.21359">
        <ele>239.02</ele>
        <time>2014-06-03T14:28:00Z</time>
      </trkpt>
      <trkpt lat="47.19134" lon="5.21364">
        <ele>237.1</ele>
        <time>2014-06-03T14:28:16Z</time>
      </trkpt>
      <trkpt lat="47.19135" lon="5.21366">
        <ele>237.1</ele>
        <time>2014-06-03T14:28:35Z</time>
      </trkpt>
      <trkpt lat="47.19134" lon="5.21362">
        <ele>237.1</ele>
        <time>2014-06-03T14:28:42Z</time>
      </trkpt>
      <trkpt lat="47.19128" lon="5.2135">
        <ele>237.1</ele>
        <time>2014-06-03T14:28:54Z</time>
      </trkpt>
      <trkpt lat="47.19119" lon="5.21337">
        <ele>236.62</ele>
        <time>2014-06-03T14:29:12Z</time>
      </trkpt>
      <trkpt lat="47.19119" lon="5.21336">
        <ele>235.66</ele>
        <time>2014-06-03T14:29:25Z</time>
      </trkpt>
      <trkpt lat="47.19119" lon="5.21336">
        <ele>235.66</ele>
        <time>2014-06-03T14:29:55Z</time>
      </trkpt>
      <trkpt lat="47.19119" lon="5.21336">
        <ele>235.66</ele>
        <time>2014-06-03T14:30:21Z</time>
      </trkpt>
      <trkpt lat="47.19119" lon="5.21336">
        <ele>235.66</ele>
        <time>2014-06-03T14:30:35Z</time>
      </trkpt>
      <trkpt lat="47.19119" lon="5.21336">
        <ele>235.18</ele>
        <time>2014-06-03T14:31:07Z</time>
      </trkpt>
      <trkpt lat="47.1912" lon="5.21336">
        <ele>235.18</ele>
        <time>2014-06-03T14:31:37Z</time>
      </trkpt>
      <trkpt lat="47.19119" lon="5.21335">
        <ele>235.18</ele>
        <time>2014-06-03T14:31:53Z</time>
      </trkpt>
      <trkpt lat="47.19119" lon="5.21336">
        <ele>235.66</ele>
        <time>2014-06-03T14:32:14Z</time>
      </trkpt>
      <trkpt lat="47.19119" lon="5.21336">
        <ele>235.18</ele>
        <time>2014-06-03T14:32:36Z</time>
      </trkpt>
      <trkpt lat="47.19119" lon="5.21336">
        <ele>234.7</ele>
        <time>2014-06-03T14:33:12Z</time>
      </trkpt>
      <trkpt lat="47.1912" lon="5.21335">
        <ele>234.7</ele>
        <time>2014-06-03T14:33:36Z</time>
      </trkpt>
      <trkpt lat="47.19119" lon="5.21336">
        <ele>234.7</ele>
        <time>2014-06-03T14:34:12Z</time>
      </trkpt>
      <trkpt lat="47.19119" lon="5.21336">
        <ele>234.22</ele>
        <time>2014-06-03T14:34:49Z</time>
      </trkpt>
      <trkpt lat="47.19119" lon="5.21336">
        <ele>234.22</ele>
        <time>2014-06-03T14:35:21Z</time>
      </trkpt>
      <trkpt lat="47.19119" lon="5.21336">
        <ele>233.74</ele>
        <time>2014-06-03T14:35:56Z</time>
      </trkpt>
      <trkpt lat="47.19119" lon="5.21336">
        <ele>234.22</ele>
        <time>2014-06-03T14:36:12Z</time>
      </trkpt>
      <trkpt lat="47.19118" lon="5.21335">
        <ele>234.7</ele>
        <time>2014-06-03T14:36:23Z</time>
      </trkpt>
      <trkpt lat="47.19118" lon="5.21335">
        <ele>234.7</ele>
        <time>2014-06-03T14:36:43Z</time>
      </trkpt>
      <trkpt lat="47.19118" lon="5.21335">
        <ele>234.7</ele>
        <time>2014-06-03T14:36:59Z</time>
      </trkpt>
      <trkpt lat="47.19118" lon="5.21335">
        <ele>234.22</ele>
        <time>2014-06-03T14:37:14Z</time>
      </trkpt>
      <trkpt lat="47.19119" lon="5.21335">
        <ele>234.22</ele>
        <time>2014-06-03T14:37:32Z</time>
      </trkpt>
      <trkpt lat="47.19118" lon="5.21334">
        <ele>234.22</ele>
        <time>2014-06-03T14:37:42Z</time>
      </trkpt>
      <trkpt lat="47.19113" lon="5.21321">
        <ele>233.74</ele>
        <time>2014-06-03T14:37:56Z</time>
      </trkpt>
      <trkpt lat="47.19109" lon="5.2131">
        <ele>235.66</ele>
        <time>2014-06-03T14:38:06Z</time>
      </trkpt>
      <trkpt lat="47.19106" lon="5.21284">
        <ele>233.26</ele>
        <time>2014-06-03T14:38:25Z</time>
      </trkpt>
      <trkpt lat="47.19109" lon="5.21271">
        <ele>233.26</ele>
        <time>2014-06-03T14:38:35Z</time>
      </trkpt>
      <trkpt lat="47.1912" lon="5.21249">
        <ele>233.74</ele>
        <time>2014-06-03T14:38:54Z</time>
      </trkpt>
      <trkpt lat="47.19129" lon="5.21229">
        <ele>233.74</ele>
        <time>2014-06-03T14:39:10Z</time>
      </trkpt>
      <trkpt lat="47.19139" lon="5.21204">
        <ele>233.26</ele>
        <time>2014-06-03T14:39:28Z</time>
      </trkpt>
      <trkpt lat="47.19143" lon="5.21192">
        <ele>232.78</ele>
        <time>2014-06-03T14:39:36Z</time>
      </trkpt>
      <trkpt lat="47.19139" lon="5.21172">
        <ele>232.78</ele>
        <time>2014-06-03T14:39:50Z</time>
      </trkpt>
      <trkpt lat="47.19138" lon="5.21144">
        <ele>232.3</ele>
        <time>2014-06-03T14:40:09Z</time>
      </trkpt>
      <trkpt lat="47.19136" lon="5.2111">
        <ele>231.81</ele>
        <time>2014-06-03T14:40:29Z</time>
      </trkpt>
      <trkpt lat="47.19138" lon="5.2108">
        <ele>231.81</ele>
        <time>2014-06-03T14:40:48Z</time>
      </trkpt>
      <trkpt lat="47.19149" lon="5.21048">
        <ele>231.33</ele>
        <time>2014-06-03T14:41:10Z</time>
      </trkpt>
      <trkpt lat="47.19162" lon="5.21023">
        <ele>231.33</ele>
        <time>2014-06-03T14:41:29Z</time>
      </trkpt>
      <trkpt lat="47.19169" lon="5.2101">
        <ele>230.85</ele>
        <time>2014-06-03T14:41:39Z</time>
      </trkpt>
      <trkpt lat="47.19175" lon="5.20999">
        <ele>230.37</ele>
        <time>2014-06-03T14:41:49Z</time>
      </trkpt>
      <trkpt lat="47.19192" lon="5.20976">
        <ele>230.85</ele>
        <time>2014-06-03T14:42:10Z</time>
      </trkpt>
      <trkpt lat="47.19196" lon="5.20971">
        <ele>230.85</ele>
        <time>2014-06-03T14:42:15Z</time>
      </trkpt>
      <trkpt lat="47.19211" lon="5.20954">
        <ele>231.33</ele>
        <time>2014-06-03T14:42:31Z</time>
      </trkpt>
      <trkpt lat="47.19227" lon="5.20936">
        <ele>231.33</ele>
        <time>2014-06-03T14:42:50Z</time>
      </trkpt>
      <trkpt lat="47.19242" lon="5.20921">
        <ele>231.81</ele>
        <time>2014-06-03T14:43:08Z</time>
      </trkpt>
      <trkpt lat="47.19256" lon="5.20906">
        <ele>232.3</ele>
        <time>2014-06-03T14:43:24Z</time>
      </trkpt>
      <trkpt lat="47.19272" lon="5.20893">
        <ele>232.78</ele>
        <time>2014-06-03T14:43:40Z</time>
      </trkpt>
      <trkpt lat="47.19288" lon="5.20879">
        <ele>233.26</ele>
        <time>2014-06-03T14:43:58Z</time>
      </trkpt>
      <trkpt lat="47.19307" lon="5.20864">
        <ele>233.74</ele>
        <time>2014-06-03T14:44:17Z</time>
      </trkpt>
      <trkpt lat="47.19326" lon="5.20849">
        <ele>233.74</ele>
        <time>2014-06-03T14:44:37Z</time>
      </trkpt>
      <trkpt lat="47.19343" lon="5.20839">
        <ele>234.22</ele>
        <time>2014-06-03T14:44:54Z</time>
      </trkpt>
      <trkpt lat="47.19349" lon="5.20833">
        <ele>234.22</ele>
        <time>2014-06-03T14:45:04Z</time>
      </trkpt>
      <trkpt lat="47.1937" lon="5.20813">
        <ele>234.22</ele>
        <time>2014-06-03T14:45:24Z</time>
      </trkpt>
      <trkpt lat="47.19386" lon="5.20802">
        <ele>234.22</ele>
        <time>2014-06-03T14:45:41Z</time>
      </trkpt>
      <trkpt lat="47.19392" lon="5.20796">
        <ele>234.7</ele>
        <time>2014-06-03T14:45:47Z</time>
      </trkpt>
      <trkpt lat="47.19401" lon="5.20788">
        <ele>234.7</ele>
        <time>2014-06-03T14:45:56Z</time>
      </trkpt>
      <trkpt lat="47.19417" lon="5.20774">
        <ele>234.7</ele>
        <time>2014-06-03T14:46:13Z</time>
      </trkpt>
      <trkpt lat="47.19433" lon="5.20755">
        <ele>234.22</ele>
        <time>2014-06-03T14:46:32Z</time>
      </trkpt>
      <trkpt lat="47.19452" lon="5.20738">
        <ele>234.22</ele>
        <time>2014-06-03T14:46:51Z</time>
      </trkpt>
      <trkpt lat="47.1947" lon="5.20714">
        <ele>234.22</ele>
        <time>2014-06-03T14:47:12Z</time>
      </trkpt>
      <trkpt lat="47.19487" lon="5.20692">
        <ele>234.22</ele>
        <time>2014-06-03T14:47:33Z</time>
      </trkpt>
      <trkpt lat="47.19497" lon="5.20678">
        <ele>233.74</ele>
        <time>2014-06-03T14:47:50Z</time>
      </trkpt>
      <trkpt lat="47.19498" lon="5.20677">
        <ele>233.74</ele>
        <time>2014-06-03T14:47:51Z</time>
      </trkpt>
      <trkpt lat="47.1951" lon="5.2066">
        <ele>233.74</ele>
        <time>2014-06-03T14:48:07Z</time>
      </trkpt>
      <trkpt lat="47.19525" lon="5.20646">
        <ele>233.74</ele>
        <time>2014-06-03T14:48:25Z</time>
      </trkpt>
      <trkpt lat="47.19541" lon="5.20632">
        <ele>234.22</ele>
        <time>2014-06-03T14:48:42Z</time>
      </trkpt>
      <trkpt lat="47.19548" lon="5.20625">
        <ele>234.22</ele>
        <time>2014-06-03T14:48:51Z</time>
      </trkpt>
      <trkpt lat="47.19564" lon="5.20614">
        <ele>234.22</ele>
        <time>2014-06-03T14:49:08Z</time>
      </trkpt>
      <trkpt lat="47.19568" lon="5.20609">
        <ele>234.22</ele>
        <time>2014-06-03T14:49:13Z</time>
      </trkpt>
      <trkpt lat="47.1958" lon="5.20596">
        <ele>234.7</ele>
        <time>2014-06-03T14:49:27Z</time>
      </trkpt>
      <trkpt lat="47.19593" lon="5.20577">
        <ele>234.7</ele>
        <time>2014-06-03T14:49:45Z</time>
      </trkpt>
      <trkpt lat="47.19605" lon="5.20563">
        <ele>234.22</ele>
        <time>2014-06-03T14:50:00Z</time>
      </trkpt>
      <trkpt lat="47.19616" lon="5.20554">
        <ele>234.22</ele>
        <time>2014-06-03T14:50:12Z</time>
      </trkpt>
      <trkpt lat="47.1962" lon="5.20551">
        <ele>234.22</ele>
        <time>2014-06-03T14:50:17Z</time>
      </trkpt>
      <trkpt lat="47.19635" lon="5.20541">
        <ele>234.22</ele>
        <time>2014-06-03T14:50:34Z</time>
      </trkpt>
      <trkpt lat="47.19638" lon="5.20539">
        <ele>234.7</ele>
        <time>2014-06-03T14:50:38Z</time>
      </trkpt>
      <trkpt lat="47.19656" lon="5.20529">
        <ele>234.7</ele>
        <time>2014-06-03T14:50:58Z</time>
      </trkpt>
      <trkpt lat="47.19672" lon="5.20521">
        <ele>234.7</ele>
        <time>2014-06-03T14:51:15Z</time>
      </trkpt>
      <trkpt lat="47.19685" lon="5.20513">
        <ele>234.7</ele>
        <time>2014-06-03T14:51:32Z</time>
      </trkpt>
      <trkpt lat="47.19693" lon="5.20509">
        <ele>234.7</ele>
        <time>2014-06-03T14:51:40Z</time>
      </trkpt>
      <trkpt lat="47.19706" lon="5.20503">
        <ele>235.18</ele>
        <time>2014-06-03T14:51:52Z</time>
      </trkpt>
      <trkpt lat="47.1971" lon="5.20501">
        <ele>235.18</ele>
        <time>2014-06-03T14:51:58Z</time>
      </trkpt>
      <trkpt lat="47.19719" lon="5.205">
        <ele>235.18</ele>
        <time>2014-06-03T14:52:08Z</time>
      </trkpt>
      <trkpt lat="47.19727" lon="5.20499">
        <ele>235.18</ele>
        <time>2014-06-03T14:52:15Z</time>
      </trkpt>
      <trkpt lat="47.19748" lon="5.20496">
        <ele>235.18</ele>
        <time>2014-06-03T14:52:34Z</time>
      </trkpt>
      <trkpt lat="47.19758" lon="5.20496">
        <ele>235.18</ele>
        <time>2014-06-03T14:52:43Z</time>
      </trkpt>
      <trkpt lat="47.19773" lon="5.20497">
        <ele>234.22</ele>
        <time>2014-06-03T14:53:00Z</time>
      </trkpt>
      <trkpt lat="47.19789" lon="5.20496">
        <ele>234.22</ele>
        <time>2014-06-03T14:53:15Z</time>
      </trkpt>
      <trkpt lat="47.19802" lon="5.20495">
        <ele>233.74</ele>
        <time>2014-06-03T14:53:29Z</time>
      </trkpt>
      <trkpt lat="47.19813" lon="5.20494">
        <ele>233.26</ele>
        <time>2014-06-03T14:53:44Z</time>
      </trkpt>
      <trkpt lat="47.19816" lon="5.20493">
        <ele>233.26</ele>
        <time>2014-06-03T14:53:48Z</time>
      </trkpt>
      <trkpt lat="47.19832" lon="5.20483">
        <ele>232.78</ele>
        <time>2014-06-03T14:54:07Z</time>
      </trkpt>
      <trkpt lat="47.19836" lon="5.20481">
        <ele>232.78</ele>
        <time>2014-06-03T14:54:18Z</time>
      </trkpt>
      <trkpt lat="47.1985" lon="5.20474">
        <ele>232.3</ele>
        <time>2014-06-03T14:54:33Z</time>
      </trkpt>
      <trkpt lat="47.19868" lon="5.20465">
        <ele>231.81</ele>
        <time>2014-06-03T14:54:49Z</time>
      </trkpt>
      <trkpt lat="47.19877" lon="5.20464">
        <ele>231.33</ele>
        <time>2014-06-03T14:55:01Z</time>
      </trkpt>
      <trkpt lat="47.19882" lon="5.20463">
        <ele>231.33</ele>
        <time>2014-06-03T14:55:06Z</time>
      </trkpt>
      <trkpt lat="47.19897" lon="5.20458">
        <ele>230.85</ele>
        <time>2014-06-03T14:55:22Z</time>
      </trkpt>
      <trkpt lat="47.19908" lon="5.20463">
        <ele>230.37</ele>
        <time>2014-06-03T14:55:38Z</time>
      </trkpt>
      <trkpt lat="47.19911" lon="5.20465">
        <ele>229.89</ele>
        <time>2014-06-03T14:55:53Z</time>
      </trkpt>
      <trkpt lat="47.19931" lon="5.20466">
        <ele>229.89</ele>
        <time>2014-06-03T14:56:12Z</time>
      </trkpt>
      <trkpt lat="47.19936" lon="5.20468">
        <ele>229.89</ele>
        <time>2014-06-03T14:56:17Z</time>
      </trkpt>
      <trkpt lat="47.19939" lon="5.20469">
        <ele>229.89</ele>
        <time>2014-06-03T14:56:20Z</time>
      </trkpt>
      <trkpt lat="47.19953" lon="5.20469">
        <ele>229.41</ele>
        <time>2014-06-03T14:56:35Z</time>
      </trkpt>
      <trkpt lat="47.19968" lon="5.20476">
        <ele>229.41</ele>
        <time>2014-06-03T14:56:49Z</time>
      </trkpt>
      <trkpt lat="47.19984" lon="5.20481">
        <ele>229.89</ele>
        <time>2014-06-03T14:57:04Z</time>
      </trkpt>
      <trkpt lat="47.19999" lon="5.20484">
        <ele>229.41</ele>
        <time>2014-06-03T14:57:19Z</time>
      </trkpt>
      <trkpt lat="47.20014" lon="5.2049">
        <ele>229.41</ele>
        <time>2014-06-03T14:57:34Z</time>
      </trkpt>
      <trkpt lat="47.20031" lon="5.20494">
        <ele>229.89</ele>
        <time>2014-06-03T14:57:50Z</time>
      </trkpt>
      <trkpt lat="47.20048" lon="5.20496">
        <ele>229.89</ele>
        <time>2014-06-03T14:58:05Z</time>
      </trkpt>
      <trkpt lat="47.20057" lon="5.20503">
        <ele>229.89</ele>
        <time>2014-06-03T14:58:18Z</time>
      </trkpt>
      <trkpt lat="47.20063" lon="5.20506">
        <ele>230.37</ele>
        <time>2014-06-03T14:58:26Z</time>
      </trkpt>
      <trkpt lat="47.20067" lon="5.20507">
        <ele>229.89</ele>
        <time>2014-06-03T14:58:30Z</time>
      </trkpt>
      <trkpt lat="47.20081" lon="5.20513">
        <ele>230.37</ele>
        <time>2014-06-03T14:58:46Z</time>
      </trkpt>
      <trkpt lat="47.2009" lon="5.20515">
        <ele>230.37</ele>
        <time>2014-06-03T14:58:55Z</time>
      </trkpt>
      <trkpt lat="47.20109" lon="5.20516">
        <ele>230.37</ele>
        <time>2014-06-03T14:59:14Z</time>
      </trkpt>
      <trkpt lat="47.20126" lon="5.20512">
        <ele>230.85</ele>
        <time>2014-06-03T14:59:29Z</time>
      </trkpt>
      <trkpt lat="47.2014" lon="5.20512">
        <ele>230.85</ele>
        <time>2014-06-03T14:59:43Z</time>
      </trkpt>
      <trkpt lat="47.20153" lon="5.20511">
        <ele>231.33</ele>
        <time>2014-06-03T14:59:58Z</time>
      </trkpt>
      <trkpt lat="47.2017" lon="5.2051">
        <ele>231.81</ele>
        <time>2014-06-03T15:00:14Z</time>
      </trkpt>
      <trkpt lat="47.20182" lon="5.20505">
        <ele>231.81</ele>
        <time>2014-06-03T15:00:27Z</time>
      </trkpt>
      <trkpt lat="47.202" lon="5.20506">
        <ele>231.81</ele>
        <time>2014-06-03T15:00:44Z</time>
      </trkpt>
      <trkpt lat="47.20208" lon="5.20505">
        <ele>232.3</ele>
        <time>2014-06-03T15:00:53Z</time>
      </trkpt>
      <trkpt lat="47.20225" lon="5.20501">
        <ele>232.3</ele>
        <time>2014-06-03T15:01:09Z</time>
      </trkpt>
      <trkpt lat="47.2024" lon="5.20497">
        <ele>232.78</ele>
        <time>2014-06-03T15:01:23Z</time>
      </trkpt>
      <trkpt lat="47.20256" lon="5.20496">
        <ele>233.26</ele>
        <time>2014-06-03T15:01:39Z</time>
      </trkpt>
      <trkpt lat="47.20263" lon="5.20495">
        <ele>233.74</ele>
        <time>2014-06-03T15:01:51Z</time>
      </trkpt>
      <trkpt lat="47.20266" lon="5.20496">
        <ele>233.74</ele>
        <time>2014-06-03T15:01:58Z</time>
      </trkpt>
      <trkpt lat="47.20276" lon="5.20495">
        <ele>234.22</ele>
        <time>2014-06-03T15:02:08Z</time>
      </trkpt>
      <trkpt lat="47.20303" lon="5.20491">
        <ele>235.18</ele>
        <time>2014-06-03T15:02:28Z</time>
      </trkpt>
      <trkpt lat="47.20318" lon="5.20488">
        <ele>235.66</ele>
        <time>2014-06-03T15:02:42Z</time>
      </trkpt>
      <trkpt lat="47.20331" lon="5.20488">
        <ele>235.66</ele>
        <time>2014-06-03T15:02:57Z</time>
      </trkpt>
      <trkpt lat="47.20342" lon="5.20487">
        <ele>236.14</ele>
        <time>2014-06-03T15:03:08Z</time>
      </trkpt>
      <trkpt lat="47.20359" lon="5.20488">
        <ele>236.62</ele>
        <time>2014-06-03T15:03:23Z</time>
      </trkpt>
      <trkpt lat="47.20362" lon="5.20486">
        <ele>236.62</ele>
        <time>2014-06-03T15:03:27Z</time>
      </trkpt>
      <trkpt lat="47.20367" lon="5.20485">
        <ele>236.62</ele>
        <time>2014-06-03T15:03:31Z</time>
      </trkpt>
      <trkpt lat="47.20372" lon="5.20481">
        <ele>236.62</ele>
        <time>2014-06-03T15:03:35Z</time>
      </trkpt>
      <trkpt lat="47.20377" lon="5.20476">
        <ele>236.62</ele>
        <time>2014-06-03T15:03:39Z</time>
      </trkpt>
      <trkpt lat="47.20389" lon="5.20479">
        <ele>237.1</ele>
        <time>2014-06-03T15:03:51Z</time>
      </trkpt>
      <trkpt lat="47.20406" lon="5.20482">
        <ele>237.1</ele>
        <time>2014-06-03T15:04:07Z</time>
      </trkpt>
      <trkpt lat="47.20417" lon="5.20484">
        <ele>238.54</ele>
        <time>2014-06-03T15:04:19Z</time>
      </trkpt>
      <trkpt lat="47.20435" lon="5.20485">
        <ele>237.58</ele>
        <time>2014-06-03T15:04:38Z</time>
      </trkpt>
      <trkpt lat="47.20441" lon="5.20487">
        <ele>237.58</ele>
        <time>2014-06-03T15:04:43Z</time>
      </trkpt>
      <trkpt lat="47.20447" lon="5.20501">
        <ele>238.06</ele>
        <time>2014-06-03T15:04:57Z</time>
      </trkpt>
      <trkpt lat="47.20451" lon="5.20517">
        <ele>238.06</ele>
        <time>2014-06-03T15:05:12Z</time>
      </trkpt>
      <trkpt lat="47.20453" lon="5.20521">
        <ele>238.06</ele>
        <time>2014-06-03T15:05:21Z</time>
      </trkpt>
      <trkpt lat="47.2046" lon="5.20533">
        <ele>238.06</ele>
        <time>2014-06-03T15:05:33Z</time>
      </trkpt>
      <trkpt lat="47.20467" lon="5.20546">
        <ele>238.06</ele>
        <time>2014-06-03T15:05:43Z</time>
      </trkpt>
      <trkpt lat="47.2047" lon="5.20565">
        <ele>237.58</ele>
        <time>2014-06-03T15:06:00Z</time>
      </trkpt>
      <trkpt lat="47.2047" lon="5.20572">
        <ele>237.58</ele>
        <time>2014-06-03T15:06:13Z</time>
      </trkpt>
      <trkpt lat="47.20475" lon="5.20585">
        <ele>237.1</ele>
        <time>2014-06-03T15:06:25Z</time>
      </trkpt>
      <trkpt lat="47.20475" lon="5.20591">
        <ele>237.1</ele>
        <time>2014-06-03T15:06:39Z</time>
      </trkpt>
      <trkpt lat="47.20477" lon="5.20605">
        <ele>237.1</ele>
        <time>2014-06-03T15:06:53Z</time>
      </trkpt>
      <trkpt lat="47.20479" lon="5.2062">
        <ele>236.62</ele>
        <time>2014-06-03T15:07:04Z</time>
      </trkpt>
      <trkpt lat="47.20478" lon="5.20644">
        <ele>235.66</ele>
        <time>2014-06-03T15:07:20Z</time>
      </trkpt>
      <trkpt lat="47.20477" lon="5.2065">
        <ele>235.66</ele>
        <time>2014-06-03T15:07:35Z</time>
      </trkpt>
      <trkpt lat="47.20478" lon="5.2065">
        <ele>235.66</ele>
        <time>2014-06-03T15:07:40Z</time>
      </trkpt>
      <trkpt lat="47.20486" lon="5.20651">
        <ele>235.66</ele>
        <time>2014-06-03T15:07:56Z</time>
      </trkpt>
      <trkpt lat="47.20486" lon="5.20651">
        <ele>235.66</ele>
        <time>2014-06-03T15:08:09Z</time>
      </trkpt>
      <trkpt lat="47.20493" lon="5.20648">
        <ele>236.14</ele>
        <time>2014-06-03T15:08:24Z</time>
      </trkpt>
      <trkpt lat="47.20506" lon="5.20647">
        <ele>236.14</ele>
        <time>2014-06-03T15:08:40Z</time>
      </trkpt>
      <trkpt lat="47.20517" lon="5.20647">
        <ele>236.14</ele>
        <time>2014-06-03T15:08:54Z</time>
      </trkpt>
      <trkpt lat="47.20528" lon="5.20645">
        <ele>236.14</ele>
        <time>2014-06-03T15:09:09Z</time>
      </trkpt>
      <trkpt lat="47.20534" lon="5.2063">
        <ele>236.14</ele>
        <time>2014-06-03T15:09:22Z</time>
      </trkpt>
      <trkpt lat="47.20535" lon="5.20624">
        <ele>236.14</ele>
        <time>2014-06-03T15:09:34Z</time>
      </trkpt>
      <trkpt lat="47.20535" lon="5.20623">
        <ele>235.66</ele>
        <time>2014-06-03T15:09:51Z</time>
      </trkpt>
      <trkpt lat="47.20535" lon="5.20624">
        <ele>235.66</ele>
        <time>2014-06-03T15:10:07Z</time>
      </trkpt>
      <trkpt lat="47.20535" lon="5.20623">
        <ele>237.1</ele>
        <time>2014-06-03T15:10:22Z</time>
      </trkpt>
      <trkpt lat="47.20535" lon="5.20623">
        <ele>235.66</ele>
        <time>2014-06-03T15:10:47Z</time>
      </trkpt>
      <trkpt lat="47.20536" lon="5.20623">
        <ele>235.66</ele>
        <time>2014-06-03T15:11:07Z</time>
      </trkpt>
      <trkpt lat="47.20536" lon="5.20623">
        <ele>235.66</ele>
        <time>2014-06-03T15:11:42Z</time>
      </trkpt>
    </trkseg>
  </trk>
</gpx>